Observation data for Bootleg on 03/11/2018      Previous  Date  Next       Current Mesonet Observations  Soil Data  Daily Summary Page  Observations in Plain Language
KBO1 110600Z 02021KT 08/M07 A3013 RMK A01 T00831071  RH  033%=      5-min Rain = 0
KBO1 110601Z 02022KT 08/M07 A3013 RMK A01 T00821072  RH  033%=      5-min Rain = 0
KBO1 110602Z 02022KT 08/M07 A3013 RMK A01 T00821071  RH  033%=      5-min Rain = 0
KBO1 110603Z 02021G26KT 08/M07 A3013 RMK A01 T00821071  RH  033%=      5-min Rain = 0
KBO1 110604Z 03021G26KT 08/M07 A3013 RMK A01 T00821071  RH  033%=      5-min Rain = 0
KBO1 110605Z 02022G27KT 08/M07 A3013 RMK A01 T00821071  RH  033%=      5-min Rain = 0
KBO1 110606Z 02020G25KT 08/M07 A3013 RMK A01 T00821072  RH  033%=      5-min Rain = 0
KBO1 110607Z 03019KT 08/M07 A3013 RMK A01 T00821072  RH  033%=      5-min Rain = 0
KBO1 110608Z 03020G27KT 08/M07 A3013 RMK A01 T00811072  RH  033%=      5-min Rain = 0
KBO1 110609Z 03023KT 08/M07 A3013 RMK A01 T00811072  RH  033%=      5-min Rain = 0
KBO1 110610Z 02025G30KT 08/M07 A3013 RMK A01 T00811072  RH  033%=      5-min Rain = 0
KBO1 110611Z 02021G27KT 08/M07 A3013 RMK A01 T00811072  RH  033%=      5-min Rain = 0
KBO1 110612Z 02018KT 08/M07 A3013 RMK A01 T00801073  RH  033%=      5-min Rain = 0
KBO1 110613Z 03016KT 08/M07 A3013 RMK A01 T00801072  RH  033%=      5-min Rain = 0
KBO1 110614Z 02021G26KT 08/M07 A3014 RMK A01 T00791073  RH  033%=      5-min Rain = 0
KBO1 110615Z 03021KT 08/M07 A3014 RMK A01 T00791073  RH  033%=      5-min Rain = 0
KBO1 110616Z 03026G33KT 08/M07 A3014 RMK A01 T00791072  RH  033%=      5-min Rain = 0
KBO1 110617Z 02023G30KT 08/M07 A3014 RMK A01 T00791072  RH  033%=      5-min Rain = 0
KBO1 110618Z 02023G28KT 08/M07 A3014 RMK A01 T00791072  RH  033%=      5-min Rain = 0
KBO1 110619Z 02022G30KT 08/M07 A3014 RMK A01 T00791072  RH  033%=      5-min Rain = 0
KBO1 110620Z 02025G32KT 08/M07 A3014 RMK A01 T00791072  RH  034%=      5-min Rain = 0
KBO1 110621Z 02021KT 08/M07 A3014 RMK A01 T00791071  RH  034%=      5-min Rain = 0
KBO1 110622Z 02025G31KT 08/M07 A3014 RMK A01 T00791071  RH  034%=      5-min Rain = 0
KBO1 110623Z 03022G27KT 08/M07 A3014 RMK A01 T00791070  RH  034%=      5-min Rain = 0
KBO1 110624Z 02023KT 08/M07 A3014 RMK A01 T00791070  RH  034%=      5-min Rain = 0
KBO1 110625Z 02022KT 08/M07 A3014 RMK A01 T00781071  RH  034%=      5-min Rain = 0
KBO1 110626Z 03020KT 08/M07 A3014 RMK A01 T00781071  RH  034%=      5-min Rain = 0
KBO1 110627Z 02021KT 08/M07 A3014 RMK A01 T00771071  RH  034%=      5-min Rain = 0
KBO1 110628Z 02021G27KT 08/M07 A3015 RMK A01 T00771070  RH  034%=      5-min Rain = 0
KBO1 110629Z 03019KT 08/M07 A3015 RMK A01 T00771070  RH  034%=      5-min Rain = 0
KBO1 110630Z 02022G28KT 08/M07 A3015 RMK A01 T00771070  RH  034%=      5-min Rain = 0
KBO1 110631Z 03020KT 08/M07 A3015 RMK A01 T00771070  RH  035%=      5-min Rain = 0
KBO1 110632Z 02017G23KT 08/M07 A3015 RMK A01 T00761070  RH  035%=      5-min Rain = 0
KBO1 110633Z 02020KT 08/M07 A3015 RMK A01 T00761070  RH  035%=      5-min Rain = 0
KBO1 110634Z 03024KT 08/M07 A3015 RMK A01 T00761070  RH  035%=      5-min Rain = 0
KBO1 110635Z 02020G26KT 08/M07 A3015 RMK A01 T00761070  RH  035%=      5-min Rain = 0
KBO1 110636Z 02023G28KT 08/M07 A3015 RMK A01 T00761070  RH  035%=      5-min Rain = 0
KBO1 110637Z 02023KT 08/M07 A3015 RMK A01 T00761071  RH  035%=      5-min Rain = 0
KBO1 110638Z 02021KT 08/M07 A3015 RMK A01 T00761070  RH  035%=      5-min Rain = 0
KBO1 110639Z 02018KT 08/M07 A3015 RMK A01 T00761071  RH  035%=      5-min Rain = 0
KBO1 110640Z 02020G25KT 08/M07 A3015 RMK A01 T00751071  RH  035%=      5-min Rain = 0
KBO1 110641Z 02024G30KT 08/M07 A3015 RMK A01 T00751071  RH  035%=      5-min Rain = 0
KBO1 110642Z 02022KT 08/M07 A3015 RMK A01 T00751071  RH  035%=      5-min Rain = 0
KBO1 110643Z 02021KT 08/M07 A3015 RMK A01 T00751071  RH  035%=      5-min Rain = 0
KBO1 110644Z 02021KT 08/M07 A3015 RMK A01 T00751071  RH  035%=      5-min Rain = 0
KBO1 110645Z 02019KT 07/M07 A3015 RMK A01 T00741071  RH  035%=      5-min Rain = 0
KBO1 110646Z 02017G22KT 07/M07 A3015 RMK A01 T00741071  RH  035%=      5-min Rain = 0
KBO1 110647Z 02021KT 07/M07 A3015 RMK A01 T00741071  RH  035%=      5-min Rain = 0
KBO1 110648Z 03018G23KT 07/M07 A3015 RMK A01 T00741071  RH  035%=      5-min Rain = 0
KBO1 110649Z 02022KT 07/M07 A3015 RMK A01 T00731071  RH  035%=      5-min Rain = 0
KBO1 110650Z 02021KT 07/M07 A3015 RMK A01 T00731071  RH  035%=      5-min Rain = 0
KBO1 110651Z 02020KT 07/M07 A3015 RMK A01 T00731071  RH  035%=      5-min Rain = 0
KBO1 110652Z 02023KT 07/M07 A3015 RMK A01 T00731071  RH  035%=      5-min Rain = 0
KBO1 110653Z 02020KT 07/M07 A3015 RMK A01 T00731071  RH  035%=      5-min Rain = 0
KBO1 110654Z 02019KT 07/M07 A3015 RMK A01 T00731071  RH  035%=      5-min Rain = 0
KBO1 110655Z 02019KT 07/M07 A3015 RMK A01 T00731071  RH  035%=      5-min Rain = 0
KBO1 110656Z 02018KT 07/M07 A3015 RMK A01 T00731071  RH  035%=      5-min Rain = 0
KBO1 110657Z 02020KT 07/M07 A3015 RMK A01 T00731071  RH  035%=      5-min Rain = 0
KBO1 110658Z 02017G22KT 07/M07 A3015 RMK A01 T00721071  RH  035%=      5-min Rain = 0
KBO1 110659Z 02018G23KT 07/M07 A3015 RMK A01 T00721071  RH  035%=      5-min Rain = 0
KBO1 110700Z 01016KT 07/M07 A3015 RMK A01 T00721071  RH  035%=      5-min Rain = 0
KBO1 110701Z 02021KT 07/M07 A3015 RMK A01 T00721071  RH  035%=      5-min Rain = 0
KBO1 110702Z 01020KT 07/M07 A3015 RMK A01 T00721071  RH  036%=      5-min Rain = 0
KBO1 110703Z 02017KT 07/M07 A3015 RMK A01 T00721071  RH  035%=      5-min Rain = 0
KBO1 110704Z 01017KT 07/M07 A3015 RMK A01 T00721071  RH  035%=      5-min Rain = 0
KBO1 110705Z 02017KT 07/M07 A3015 RMK A01 T00711071  RH  035%=      5-min Rain = 0
KBO1 110706Z 02017KT 07/M07 A3016 RMK A01 T00711071  RH  035%=      5-min Rain = 0
KBO1 110707Z 01018KT 07/M07 A3016 RMK A01 T00721071  RH  036%=      5-min Rain = 0
KBO1 110708Z 02016KT 07/M07 A3016 RMK A01 T00711072  RH  035%=      5-min Rain = 0
KBO1 110709Z 01017KT 07/M07 A3016 RMK A01 T00711072  RH  035%=      5-min Rain = 0
KBO1 110710Z 02018KT 07/M07 A3016 RMK A01 T00711072  RH  035%=      5-min Rain = 0
KBO1 110711Z 02017KT 07/M07 A3016 RMK A01 T00711072  RH  035%=      5-min Rain = 0
KBO1 110712Z 02016KT 07/M07 A3016 RMK A01 T00711072  RH  035%=      5-min Rain = 0
KBO1 110713Z 01017KT 07/M07 A3016 RMK A01 T00711072  RH  035%=      5-min Rain = 0
KBO1 110714Z 02014KT 07/M07 A3016 RMK A01 T00701072  RH  036%=      5-min Rain = 0
KBO1 110715Z 02015KT 07/M07 A3016 RMK A01 T00701072  RH  036%=      5-min Rain = 0
KBO1 110716Z 02017KT 07/M07 A3016 RMK A01 T00701072  RH  036%=      5-min Rain = 0
KBO1 110717Z 02017KT 07/M07 A3016 RMK A01 T00701072  RH  036%=      5-min Rain = 0
KBO1 110718Z 02017KT 07/M07 A3016 RMK A01 T00701072  RH  036%=      5-min Rain = 0
KBO1 110719Z 02015G21KT 07/M07 A3016 RMK A01 T00701072  RH  036%=      5-min Rain = 0
KBO1 110720Z 02015KT 07/M07 A3016 RMK A01 T00701072  RH  036%=      5-min Rain = 0
KBO1 110721Z 02016KT 07/M07 A3016 RMK A01 T00691072  RH  036%=      5-min Rain = 0
KBO1 110722Z 01018KT 07/M07 A3016 RMK A01 T00691072  RH  036%=      5-min Rain = 0
KBO1 110723Z 02017KT 07/M07 A3016 RMK A01 T00691071  RH  036%=      5-min Rain = 0
KBO1 110724Z 02014KT 07/M07 A3016 RMK A01 T00691071  RH  036%=      5-min Rain = 0
KBO1 110725Z 01017KT 07/M07 A3016 RMK A01 T00691071  RH  036%=      5-min Rain = 0
KBO1 110726Z 02016G21KT 07/M07 A3016 RMK A01 T00691071  RH  036%=      5-min Rain = 0
KBO1 110727Z 02017KT 07/M07 A3016 RMK A01 T00691071  RH  036%=      5-min Rain = 0
KBO1 110728Z 01015KT 07/M07 A3016 RMK A01 T00691071  RH  036%=      5-min Rain = 0
KBO1 110729Z 02015KT 07/M07 A3016 RMK A01 T00681071  RH  036%=      5-min Rain = 0
KBO1 110730Z 01015KT 07/M07 A3016 RMK A01 T00681071  RH  036%=      5-min Rain = 0
KBO1 110731Z 01015G21KT 07/M07 A3016 RMK A01 T00681071  RH  036%=      5-min Rain = 0
KBO1 110732Z 02015KT 07/M07 A3016 RMK A01 T00681070  RH  036%=      5-min Rain = 0
KBO1 110733Z 02014KT 07/M07 A3016 RMK A01 T00681071  RH  036%=      5-min Rain = 0
KBO1 110734Z 01013KT 07/M07 A3017 RMK A01 T00681071  RH  037%=      5-min Rain = 0
KBO1 110735Z 02018KT 07/M07 A3017 RMK A01 T00671071  RH  037%=      5-min Rain = 0
KBO1 110736Z 02015KT 07/M07 A3017 RMK A01 T00671071  RH  037%=      5-min Rain = 0
KBO1 110737Z 01015KT 07/M07 A3017 RMK A01 T00671071  RH  037%=      5-min Rain = 0
KBO1 110738Z 02013KT 07/M07 A3017 RMK A01 T00671071  RH  037%=      5-min Rain = 0
KBO1 110739Z 02015KT 07/M07 A3017 RMK A01 T00671071  RH  037%=      5-min Rain = 0
KBO1 110740Z 02014KT 07/M07 A3017 RMK A01 T00671071  RH  037%=      5-min Rain = 0
KBO1 110741Z 02014KT 07/M07 A3017 RMK A01 T00671070  RH  037%=      5-min Rain = 0
KBO1 110742Z 02015KT 07/M07 A3017 RMK A01 T00671071  RH  037%=      5-min Rain = 0
KBO1 110743Z 01012KT 07/M07 A3017 RMK A01 T00671070  RH  037%=      5-min Rain = 0
KBO1 110744Z 01012KT 07/M07 A3017 RMK A01 T00661071  RH  037%=      5-min Rain = 0
KBO1 110745Z 02013KT 07/M07 A3017 RMK A01 T00661071  RH  037%=      5-min Rain = 0
KBO1 110746Z 02013KT 07/M07 A3017 RMK A01 T00651071  RH  037%=      5-min Rain = 0
KBO1 110747Z 01013KT 07/M07 A3017 RMK A01 T00651071  RH  037%=      5-min Rain = 0
KBO1 110748Z 02014KT 07/M07 A3017 RMK A01 T00651071  RH  037%=      5-min Rain = 0
KBO1 110749Z 02013KT 07/M07 A3017 RMK A01 T00651071  RH  037%=      5-min Rain = 0
KBO1 110750Z 02013KT 07/M07 A3017 RMK A01 T00651071  RH  037%=      5-min Rain = 0
KBO1 110751Z 02013KT 07/M07 A3017 RMK A01 T00651071  RH  037%=      5-min Rain = 0
KBO1 110752Z 02014KT 07/M07 A3017 RMK A01 T00651071  RH  037%=      5-min Rain = 0
KBO1 110753Z 01015KT 07/M07 A3017 RMK A01 T00651071  RH  037%=      5-min Rain = 0
KBO1 110754Z 02011KT 07/M07 A3017 RMK A01 T00651071  RH  037%=      5-min Rain = 0
KBO1 110755Z 01010KT 07/M07 A3017 RMK A01 T00651071  RH  037%=      5-min Rain = 0
KBO1 110756Z 01014KT 07/M07 A3017 RMK A01 T00651071  RH  037%=      5-min Rain = 0
KBO1 110757Z 01013KT 06/M07 A3017 RMK A01 T00641071  RH  037%=      5-min Rain = 0
KBO1 110758Z 02014KT 06/M07 A3017 RMK A01 T00641071  RH  037%=      5-min Rain = 0
KBO1 110759Z 02014KT 07/M07 A3017 RMK A01 T00651070  RH  037%=      5-min Rain = 0
KBO1 110800Z 01014KT 07/M07 A3017 RMK A01 T00651071  RH  037%=      5-min Rain = 0
KBO1 110801Z 02013KT 07/M07 A3017 RMK A01 T00651070  RH  037%=      5-min Rain = 0
KBO1 110802Z 01014KT 07/M07 A3017 RMK A01 T00651070  RH  037%=      5-min Rain = 0
KBO1 110803Z 01012G17KT 06/M07 A3018 RMK A01 T00641071  RH  037%=      5-min Rain = 0
KBO1 110804Z 01014KT 06/M07 A3018 RMK A01 T00641071  RH  037%=      5-min Rain = 0
KBO1 110805Z 01014KT 06/M07 A3018 RMK A01 T00641070  RH  037%=      5-min Rain = 0
KBO1 110806Z 01012KT 06/M07 A3018 RMK A01 T00641071  RH  037%=      5-min Rain = 0
KBO1 110807Z 01013KT 06/M07 A3018 RMK A01 T00641071  RH  037%=      5-min Rain = 0
KBO1 110808Z 01013KT 06/M07 A3018 RMK A01 T00641071  RH  037%=      5-min Rain = 0
KBO1 110809Z 01015KT 06/M07 A3018 RMK A01 T00631071  RH  037%=      5-min Rain = 0
KBO1 110810Z 01014KT 06/M07 A3018 RMK A01 T00631071  RH  037%=      5-min Rain = 0
KBO1 110811Z 01013KT 06/M07 A3018 RMK A01 T00641071  RH  037%=      5-min Rain = 0
KBO1 110812Z 01014KT 06/M07 A3018 RMK A01 T00631071  RH  037%=      5-min Rain = 0
KBO1 110813Z 01012KT 06/M07 A3018 RMK A01 T00641071  RH  037%=      5-min Rain = 0
KBO1 110814Z 01015KT 06/M07 A3018 RMK A01 T00641071  RH  037%=      5-min Rain = 0
KBO1 110815Z 01013G18KT 06/M07 A3018 RMK A01 T00641071  RH  037%=      5-min Rain = 0
KBO1 110816Z 01012KT 06/M07 A3018 RMK A01 T00631072  RH  037%=      5-min Rain = 0
KBO1 110817Z 01013KT 06/M07 A3018 RMK A01 T00631072  RH  037%=      5-min Rain = 0
KBO1 110818Z 01013KT 06/M07 A3018 RMK A01 T00631072  RH  037%=      5-min Rain = 0
KBO1 110819Z 01014KT 06/M07 A3018 RMK A01 T00631072  RH  037%=      5-min Rain = 0
KBO1 110820Z 01014KT 06/M07 A3018 RMK A01 T00631071  RH  037%=      5-min Rain = 0
KBO1 110821Z 01014KT 06/M07 A3018 RMK A01 T00631072  RH  037%=      5-min Rain = 0
KBO1 110822Z 01011KT 06/M07 A3018 RMK A01 T00631072  RH  037%=      5-min Rain = 0
KBO1 110823Z 01014KT 06/M07 A3018 RMK A01 T00631072  RH  037%=      5-min Rain = 0
KBO1 110824Z 01013KT 06/M07 A3018 RMK A01 T00631072  RH  037%=      5-min Rain = 0
KBO1 110825Z 01011KT 06/M07 A3018 RMK A01 T00631073  RH  037%=      5-min Rain = 0
KBO1 110826Z 01011KT 06/M07 A3018 RMK A01 T00621073  RH  037%=      5-min Rain = 0
KBO1 110827Z 01013KT 06/M07 A3018 RMK A01 T00621073  RH  038%=      5-min Rain = 0
KBO1 110828Z 01011KT 06/M07 A3018 RMK A01 T00611073  RH  037%=      5-min Rain = 0
KBO1 110829Z 01013KT 06/M07 A3018 RMK A01 T00611073  RH  037%=      5-min Rain = 0
KBO1 110830Z 01012KT 06/M07 A3018 RMK A01 T00611073  RH  037%=      5-min Rain = 0
KBO1 110831Z 01011KT 06/M07 A3018 RMK A01 T00611073  RH  037%=      5-min Rain = 0
KBO1 110832Z 01013KT 06/M07 A3018 RMK A01 T00611073  RH  037%=      5-min Rain = 0
KBO1 110833Z 01012KT 06/M07 A3018 RMK A01 T00611074  RH  037%=      5-min Rain = 0
KBO1 110834Z 01012KT 06/M07 A3018 RMK A01 T00611073  RH  037%=      5-min Rain = 0
KBO1 110835Z 01014KT 06/M07 A3018 RMK A01 T00611074  RH  037%=      5-min Rain = 0
KBO1 110836Z 01013KT 06/M07 A3018 RMK A01 T00611074  RH  037%=      5-min Rain = 0
KBO1 110837Z 01013KT 06/M07 A3018 RMK A01 T00611074  RH  037%=      5-min Rain = 0
KBO1 110838Z 01013KT 06/M07 A3018 RMK A01 T00611074  RH  037%=      5-min Rain = 0
KBO1 110839Z 01012KT 06/M07 A3018 RMK A01 T00611074  RH  037%=      5-min Rain = 0
KBO1 110840Z 01011KT 06/M08 A3018 RMK A01 T00611075  RH  037%=      5-min Rain = 0
KBO1 110841Z 01011KT 06/M08 A3018 RMK A01 T00601075  RH  037%=      5-min Rain = 0
KBO1 110842Z 01011KT 06/M07 A3018 RMK A01 T00601074  RH  037%=      5-min Rain = 0
KBO1 110843Z 01012KT 06/M08 A3018 RMK A01 T00601075  RH  037%=      5-min Rain = 0
KBO1 110844Z 01013KT 06/M08 A3018 RMK A01 T00601075  RH  037%=      5-min Rain = 0
KBO1 110845Z 01013KT 06/M08 A3018 RMK A01 T00601075  RH  037%=      5-min Rain = 0
KBO1 110846Z 01011KT 06/M08 A3018 RMK A01 T00601075  RH  037%=      5-min Rain = 0
KBO1 110847Z 01013KT 06/M08 A3018 RMK A01 T00601076  RH  037%=      5-min Rain = 0
KBO1 110848Z 01012KT 06/M08 A3018 RMK A01 T00601076  RH  037%=      5-min Rain = 0
KBO1 110849Z 01013KT 06/M08 A3018 RMK A01 T00601076  RH  037%=      5-min Rain = 0
KBO1 110850Z 01012KT 06/M08 A3018 RMK A01 T00601076  RH  037%=      5-min Rain = 0
KBO1 110851Z 01013KT 06/M08 A3018 RMK A01 T00591076  RH  037%=      5-min Rain = 0
KBO1 110852Z 01013KT 06/M08 A3018 RMK A01 T00591076  RH  037%=      5-min Rain = 0
KBO1 110853Z 00012KT 06/M08 A3018 RMK A01 T00601076  RH  037%=      5-min Rain = 0
KBO1 110854Z 00014KT 06/M08 A3018 RMK A01 T00591077  RH  037%=      5-min Rain = 0
KBO1 110855Z 00013KT 06/M08 A3018 RMK A01 T00591077  RH  037%=      5-min Rain = 0
KBO1 110856Z 01013KT 06/M08 A3018 RMK A01 T00591077  RH  037%=      5-min Rain = 0
KBO1 110857Z 01012KT 06/M08 A3018 RMK A01 T00591077  RH  037%=      5-min Rain = 0
KBO1 110858Z 01014KT 06/M08 A3018 RMK A01 T00581077  RH  037%=      5-min Rain = 0
KBO1 110859Z 01014KT 06/M08 A3018 RMK A01 T00591077  RH  037%=      5-min Rain = 0
KBO1 110900Z 01012KT 06/M08 A3018 RMK A01 T00591078  RH  037%=      5-min Rain = 0
KBO1 110901Z 01013KT 06/M08 A3018 RMK A01 T00591078  RH  037%=      5-min Rain = 0
KBO1 110902Z 01012KT 06/M08 A3018 RMK A01 T00591078  RH  037%=      5-min Rain = 0
KBO1 110903Z 01013KT 06/M08 A3018 RMK A01 T00591078  RH  037%=      5-min Rain = 0
KBO1 110904Z 01012KT 06/M08 A3018 RMK A01 T00581078  RH  037%=      5-min Rain = 0
KBO1 110905Z 01013KT 06/M08 A3018 RMK A01 T00581079  RH  037%=      5-min Rain = 0
KBO1 110906Z 01011KT 06/M08 A3018 RMK A01 T00571079  RH  037%=      5-min Rain = 0
KBO1 110907Z 01013KT 06/M08 A3018 RMK A01 T00581079  RH  037%=      5-min Rain = 0
KBO1 110908Z 00013KT 06/M08 A3018 RMK A01 T00581079  RH  037%=      5-min Rain = 0
KBO1 110909Z 00013KT 06/M08 A3018 RMK A01 T00571079  RH  037%=      5-min Rain = 0
KBO1 110910Z 00012KT 06/M08 A3018 RMK A01 T00571079  RH  037%=      5-min Rain = 0
KBO1 110911Z 01015KT 06/M08 A3018 RMK A01 T00571080  RH  037%=      5-min Rain = 0
KBO1 110912Z 01013KT 06/M08 A3018 RMK A01 T00571080  RH  037%=      5-min Rain = 0
KBO1 110913Z 01017KT 06/M08 A3018 RMK A01 T00571081  RH  036%=      5-min Rain = 0
KBO1 110914Z 01015KT 06/M08 A3018 RMK A01 T00581081  RH  036%=      5-min Rain = 0
KBO1 110915Z 01015KT 06/M08 A3018 RMK A01 T00581081  RH  036%=      5-min Rain = 0
KBO1 110916Z 01015KT 06/M08 A3018 RMK A01 T00571082  RH  036%=      5-min Rain = 0
KBO1 110917Z 01015KT 06/M08 A3018 RMK A01 T00581082  RH  036%=      5-min Rain = 0
KBO1 110918Z 01013KT 06/M08 A3018 RMK A01 T00581082  RH  036%=      5-min Rain = 0
KBO1 110919Z 01015KT 06/M08 A3018 RMK A01 T00571082  RH  036%=      5-min Rain = 0
KBO1 110920Z 01016KT 06/M08 A3018 RMK A01 T00571082  RH  036%=      5-min Rain = 0
KBO1 110921Z 01014KT 06/M08 A3018 RMK A01 T00571082  RH  036%=      5-min Rain = 0
KBO1 110922Z 01015KT 06/M08 A3018 RMK A01 T00571082  RH  036%=      5-min Rain = 0
KBO1 110923Z 01018G23KT 06/M08 A3018 RMK A01 T00571083  RH  036%=      5-min Rain = 0
KBO1 110924Z 01019KT 06/M08 A3018 RMK A01 T00561084  RH  036%=      5-min Rain = 0
KBO1 110925Z 01019KT 06/M08 A3018 RMK A01 T00571084  RH  035%=      5-min Rain = 0
KBO1 110926Z 02021G26KT 06/M09 A3018 RMK A01 T00571085  RH  035%=      5-min Rain = 0
KBO1 110927Z 01021KT 06/M09 A3018 RMK A01 T00571085  RH  035%=      5-min Rain = 0
KBO1 110928Z 01016KT 06/M09 A3018 RMK A01 T00571086  RH  035%=      5-min Rain = 0
KBO1 110929Z 01018KT 06/M09 A3018 RMK A01 T00571085  RH  035%=      5-min Rain = 0
KBO1 110930Z 01016KT 06/M09 A3018 RMK A01 T00571085  RH  035%=      5-min Rain = 0
KBO1 110931Z 01020KT 06/M09 A3018 RMK A01 T00571085  RH  035%=      5-min Rain = 0
KBO1 110932Z 02017KT 06/M09 A3018 RMK A01 T00571085  RH  035%=      5-min Rain = 0
KBO1 110933Z 02017KT 06/M09 A3018 RMK A01 T00561085  RH  035%=      5-min Rain = 0
KBO1 110934Z 02018KT 06/M09 A3018 RMK A01 T00561085  RH  036%=      5-min Rain = 0
KBO1 110935Z 01017KT 06/M09 A3018 RMK A01 T00561085  RH  036%=      5-min Rain = 0
KBO1 110936Z 01017KT 06/M08 A3018 RMK A01 T00561084  RH  036%=      5-min Rain = 0
KBO1 110937Z 01019KT 06/M09 A3018 RMK A01 T00561085  RH  036%=      5-min Rain = 0
KBO1 110938Z 02017G22KT 06/M09 A3018 RMK A01 T00551085  RH  036%=      5-min Rain = 0
KBO1 110939Z 02017KT 06/M09 A3018 RMK A01 T00551085  RH  036%=      5-min Rain = 0
KBO1 110940Z 01019G24KT 06/M09 A3018 RMK A01 T00551085  RH  036%=      5-min Rain = 0
KBO1 110941Z 01023KT 06/M09 A3018 RMK A01 T00551085  RH  036%=      5-min Rain = 0
KBO1 110942Z 01021G26KT 06/M08 A3018 RMK A01 T00551084  RH  036%=      5-min Rain = 0
KBO1 110943Z 01021G27KT 06/M09 A3018 RMK A01 T00551085  RH  036%=      5-min Rain = 0
KBO1 110944Z 02021G29KT 05/M09 A3018 RMK A01 T00541085  RH  036%=      5-min Rain = 0
KBO1 110945Z 01023G29KT 05/M09 A3018 RMK A01 T00541085  RH  036%=      5-min Rain = 0
KBO1 110946Z 01021G26KT 05/M09 A3018 RMK A01 T00541085  RH  036%=      5-min Rain = 0
KBO1 110947Z 02021KT 05/M09 A3018 RMK A01 T00531086  RH  036%=      5-min Rain = 0
KBO1 110948Z 02022KT 05/M09 A3018 RMK A01 T00531086  RH  036%=      5-min Rain = 0
KBO1 110949Z 01020G25KT 05/M09 A3018 RMK A01 T00531086  RH  036%=      5-min Rain = 0
KBO1 110950Z 02022KT 05/M09 A3018 RMK A01 T00521086  RH  036%=      5-min Rain = 0
KBO1 110951Z 02021KT 05/M09 A3018 RMK A01 T00521086  RH  036%=      5-min Rain = 0
KBO1 110952Z 02018KT 05/M09 A3018 RMK A01 T00521086  RH  036%=      5-min Rain = 0
KBO1 110953Z 02018G25KT 05/M09 A3018 RMK A01 T00511086  RH  036%=      5-min Rain = 0
KBO1 110954Z 02022KT 05/M09 A3019 RMK A01 T00511086  RH  036%=      5-min Rain = 0
KBO1 110955Z 01017KT 05/M09 A3019 RMK A01 T00501087  RH  036%=      5-min Rain = 0
KBO1 110956Z 01018KT 05/M09 A3019 RMK A01 T00501087  RH  036%=      5-min Rain = 0
KBO1 110957Z 01018KT 05/M09 A3018 RMK A01 T00501087  RH  037%=      5-min Rain = 0
KBO1 110958Z 01019G24KT 05/M09 A3018 RMK A01 T00491087  RH  037%=      5-min Rain = 0
KBO1 110959Z 01020KT 05/M09 A3018 RMK A01 T00491087  RH  037%=      5-min Rain = 0
KBO1 111000Z 01020G25KT 05/M09 A3018 RMK A01 T00491088  RH  037%=      5-min Rain = 0
KBO1 111001Z 01019KT 05/M09 A3018 RMK A01 T00481089  RH  036%=      5-min Rain = 0
KBO1 111002Z 01021KT 05/M09 A3019 RMK A01 T00481089  RH  036%=      5-min Rain = 0
KBO1 111003Z 01021KT 05/M09 A3019 RMK A01 T00471090  RH  036%=      5-min Rain = 0
KBO1 111004Z 01016KT 05/M09 A3019 RMK A01 T00471090  RH  036%=      5-min Rain = 0
KBO1 111005Z 01019KT 05/M09 A3019 RMK A01 T00461090  RH  036%=      5-min Rain = 0
KBO1 111006Z 01019KT 05/M09 A3019 RMK A01 T00471090  RH  036%=      5-min Rain = 0
KBO1 111007Z 01016KT 05/M09 A3019 RMK A01 T00461090  RH  036%=      5-min Rain = 0
KBO1 111008Z 01020KT 05/M09 A3019 RMK A01 T00461090  RH  036%=      5-min Rain = 0
KBO1 111009Z 01019KT 05/M09 A3019 RMK A01 T00461090  RH  037%=      5-min Rain = 0
KBO1 111010Z 01021KT 05/M09 A3019 RMK A01 T00461090  RH  037%=      5-min Rain = 0
KBO1 111011Z 01019KT 05/M09 A3019 RMK A01 T00451090  RH  037%=      5-min Rain = 0
KBO1 111012Z 01017KT 05/M09 A3019 RMK A01 T00451090  RH  037%=      5-min Rain = 0
KBO1 111013Z 01017KT 05/M09 A302 RMK A01 T00451090  RH  037%=      5-min Rain = 0
KBO1 111014Z 01017KT 05/M09 A3019 RMK A01 T00451090  RH  037%=      5-min Rain = 0
KBO1 111015Z 01019KT 04/M09 A302 RMK A01 T00441090  RH  037%=      5-min Rain = 0
KBO1 111016Z 01019KT 04/M09 A302 RMK A01 T00441091  RH  037%=      5-min Rain = 0
KBO1 111017Z 02019KT 04/M09 A302 RMK A01 T00441091  RH  037%=      5-min Rain = 0
KBO1 111018Z 01015KT 04/M09 A302 RMK A01 T00441090  RH  037%=      5-min Rain = 0
KBO1 111019Z 01014KT 04/M09 A302 RMK A01 T00431090  RH  037%=      5-min Rain = 0
KBO1 111020Z 01015KT 04/M09 A302 RMK A01 T00431091  RH  037%=      5-min Rain = 0
KBO1 111021Z 01016KT 04/M09 A302 RMK A01 T00431091  RH  037%=      5-min Rain = 0
KBO1 111022Z 01014KT 04/M09 A302 RMK A01 T00431090  RH  037%=      5-min Rain = 0
KBO1 111023Z 01015KT 04/M09 A302 RMK A01 T00431090  RH  037%=      5-min Rain = 0
KBO1 111024Z 01017G22KT 04/M09 A302 RMK A01 T00421090  RH  038%=      5-min Rain = 0
KBO1 111025Z 00015G20KT 04/M09 A302 RMK A01 T00431090  RH  038%=      5-min Rain = 0
KBO1 111026Z 00016KT 04/M09 A302 RMK A01 T00421090  RH  038%=      5-min Rain = 0
KBO1 111027Z 01017KT 04/M09 A302 RMK A01 T00421090  RH  038%=      5-min Rain = 0
KBO1 111028Z 01017KT 04/M09 A302 RMK A01 T00411090  RH  038%=      5-min Rain = 0
KBO1 111029Z 01017KT 04/M09 A302 RMK A01 T00411091  RH  038%=      5-min Rain = 0
KBO1 111030Z 02018KT 04/M09 A302 RMK A01 T00411092  RH  037%=      5-min Rain = 0
KBO1 111031Z 02019KT 04/M09 A302 RMK A01 T00401093  RH  037%=      5-min Rain = 0
KBO1 111032Z 01016KT 04/M09 A302 RMK A01 T00401093  RH  037%=      5-min Rain = 0
KBO1 111033Z 01016KT 04/M09 A302 RMK A01 T00401093  RH  037%=      5-min Rain = 0
KBO1 111034Z 01018KT 04/M09 A302 RMK A01 T00401093  RH  037%=      5-min Rain = 0
KBO1 111035Z 01014KT 04/M09 A302 RMK A01 T00391093  RH  037%=      5-min Rain = 0
KBO1 111036Z 01018G23KT 04/M09 A302 RMK A01 T00391093  RH  037%=      5-min Rain = 0
KBO1 111037Z 01020KT 04/M09 A302 RMK A01 T00391093  RH  037%=      5-min Rain = 0
KBO1 111038Z 01019G24KT 04/M09 A3021 RMK A01 T00391094  RH  037%=      5-min Rain = 0
KBO1 111039Z 01017G22KT 04/M09 A3021 RMK A01 T00381094  RH  037%=      5-min Rain = 0
KBO1 111040Z 01018KT 04/M09 A3021 RMK A01 T00381094  RH  037%=      5-min Rain = 0
KBO1 111041Z 01017G22KT 04/M09 A3021 RMK A01 T00381094  RH  037%=      5-min Rain = 0
KBO1 111042Z 01017G22KT 04/M10 A3021 RMK A01 T00381095  RH  037%=      5-min Rain = 0
KBO1 111043Z 00019G24KT 04/M10 A3021 RMK A01 T00371095  RH  037%=      5-min Rain = 0
KBO1 111044Z 01019KT 04/M10 A3021 RMK A01 T00371095  RH  037%=      5-min Rain = 0
KBO1 111045Z 01020KT 04/M10 A3021 RMK A01 T00371095  RH  037%=      5-min Rain = 0
KBO1 111046Z 01018KT 04/M10 A3021 RMK A01 T00371096  RH  037%=      5-min Rain = 0
KBO1 111047Z 01020KT 04/M10 A3021 RMK A01 T00361096  RH  037%=      5-min Rain = 0
KBO1 111048Z 01019KT 04/M10 A3021 RMK A01 T00361096  RH  038%=      5-min Rain = 0
KBO1 111049Z 01019KT 04/M10 A3021 RMK A01 T00361095  RH  038%=      5-min Rain = 0
KBO1 111050Z 01018KT 04/M10 A3021 RMK A01 T00361095  RH  038%=      5-min Rain = 0
KBO1 111051Z 01019G27KT 04/M10 A3021 RMK A01 T00361095  RH  038%=      5-min Rain = 0
KBO1 111052Z 01022KT 04/M10 A3021 RMK A01 T00351096  RH  038%=      5-min Rain = 0
KBO1 111053Z 01020KT 04/M10 A3021 RMK A01 T00351096  RH  038%=      5-min Rain = 0
KBO1 111054Z 01017G23KT 04/M10 A3021 RMK A01 T00351096  RH  038%=      5-min Rain = 0
KBO1 111055Z 01020KT 04/M10 A3021 RMK A01 T00351096  RH  038%=      5-min Rain = 0
KBO1 111056Z 01019G24KT 04/M10 A3021 RMK A01 T00351096  RH  038%=      5-min Rain = 0
KBO1 111057Z 01019KT 04/M10 A3021 RMK A01 T00351097  RH  038%=      5-min Rain = 0
KBO1 111058Z 01020KT 04/M10 A3021 RMK A01 T00351096  RH  038%=      5-min Rain = 0
KBO1 111059Z 01021KT 04/M10 A3021 RMK A01 T00351097  RH  038%=      5-min Rain = 0
KBO1 111100Z 01020KT 03/M10 A3021 RMK A01 T00341097  RH  038%=      5-min Rain = 0
KBO1 111101Z 01020KT 03/M10 A3021 RMK A01 T00341097  RH  038%=      5-min Rain = 0
KBO1 111102Z 00016KT 03/M10 A3021 RMK A01 T00341097  RH  038%=      5-min Rain = 0
KBO1 111103Z 01016KT 03/M10 A3021 RMK A01 T00331097  RH  038%=      5-min Rain = 0
KBO1 111104Z 01015G20KT 03/M10 A3021 RMK A01 T00341097  RH  038%=      5-min Rain = 0
KBO1 111105Z 01018KT 03/M10 A3021 RMK A01 T00331097  RH  038%=      5-min Rain = 0
KBO1 111106Z 01016KT 03/M10 A3021 RMK A01 T00331097  RH  038%=      5-min Rain = 0
KBO1 111107Z 01019KT 03/M10 A3022 RMK A01 T00331097  RH  038%=      5-min Rain = 0
KBO1 111108Z 01019KT 03/M10 A3022 RMK A01 T00331098  RH  038%=      5-min Rain = 0
KBO1 111109Z 01021G28KT 03/M10 A3021 RMK A01 T00331099  RH  037%=      5-min Rain = 0
KBO1 111110Z 01019KT 03/M10 A3022 RMK A01 T00331099  RH  037%=      5-min Rain = 0
KBO1 111111Z 01018KT 03/M10 A3022 RMK A01 T00331100  RH  037%=      5-min Rain = 0
KBO1 111112Z 01019G24KT 03/M10 A3022 RMK A01 T00331100  RH  037%=      5-min Rain = 0
KBO1 111113Z 01021G27KT 03/M10 A3022 RMK A01 T00331101  RH  037%=      5-min Rain = 0
KBO1 111114Z 01019KT 03/M10 A3022 RMK A01 T00321103  RH  036%=      5-min Rain = 0
KBO1 111115Z 01015KT 03/M10 A3022 RMK A01 T00321102  RH  037%=      5-min Rain = 0
KBO1 111116Z 01018G24KT 03/M10 A3022 RMK A01 T00321101  RH  037%=      5-min Rain = 0
KBO1 111117Z 01023KT 03/M10 A3022 RMK A01 T00321102  RH  037%=      5-min Rain = 0
KBO1 111118Z 01022KT 03/M11 A3022 RMK A01 T00311105  RH  036%=      5-min Rain = 0
KBO1 111119Z 02019G24KT 03/M11 A3021 RMK A01 T00321105  RH  036%=      5-min Rain = 0
KBO1 111120Z 01019G24KT 03/M10 A3021 RMK A01 T00321104  RH  036%=      5-min Rain = 0
KBO1 111121Z 01019KT 03/M10 A3021 RMK A01 T00321104  RH  036%=      5-min Rain = 0
KBO1 111122Z 01021KT 03/M10 A3021 RMK A01 T00311104  RH  036%=      5-min Rain = 0
KBO1 111123Z 01021KT 03/M10 A3021 RMK A01 T00311104  RH  036%=      5-min Rain = 0
KBO1 111124Z 01019G25KT 03/M10 A3021 RMK A01 T00311104  RH  036%=      5-min Rain = 0
KBO1 111125Z 01021G26KT 03/M11 A3021 RMK A01 T00311105  RH  036%=      5-min Rain = 0
KBO1 111126Z 01020G25KT 03/M11 A3021 RMK A01 T00301106  RH  036%=      5-min Rain = 0
KBO1 111127Z 01021KT 03/M11 A3021 RMK A01 T00301107  RH  036%=      5-min Rain = 0
KBO1 111128Z 02022KT 03/M11 A3021 RMK A01 T00311107  RH  036%=      5-min Rain = 0
KBO1 111129Z 02023KT 03/M11 A3021 RMK A01 T00311108  RH  035%=      5-min Rain = 0
KBO1 111130Z 02023KT 03/M11 A3021 RMK A01 T00311109  RH  035%=      5-min Rain = 0
KBO1 111131Z 02024KT 03/M11 A3021 RMK A01 T00311110  RH  035%=      5-min Rain = 0
KBO1 111132Z 02019G24KT 03/M11 A3021 RMK A01 T00301110  RH  035%=      5-min Rain = 0
KBO1 111133Z 02019G26KT 03/M11 A3021 RMK A01 T00301110  RH  035%=      5-min Rain = 0
KBO1 111134Z 02023G28KT 03/M11 A3021 RMK A01 T00301110  RH  035%=      5-min Rain = 0
KBO1 111135Z 02021G26KT 03/M11 A3021 RMK A01 T00301110  RH  035%=      5-min Rain = 0
KBO1 111136Z 02020G25KT 03/M11 A3021 RMK A01 T00301110  RH  035%=      5-min Rain = 0
KBO1 111137Z 02023KT 03/M11 A3021 RMK A01 T00301111  RH  035%=      5-min Rain = 0
KBO1 111138Z 01026KT 03/M11 A3021 RMK A01 T00301112  RH  035%=      5-min Rain = 0
KBO1 111139Z 02024KT 03/M11 A3021 RMK A01 T00301113  RH  034%=      5-min Rain = 0
KBO1 111140Z 02024KT 03/M11 A3021 RMK A01 T00301113  RH  034%=      5-min Rain = 0
KBO1 111141Z 02022KT 03/M11 A3021 RMK A01 T00291113  RH  034%=      5-min Rain = 0
KBO1 111142Z 02020G25KT 03/M11 A3021 RMK A01 T00291113  RH  034%=      5-min Rain = 0
KBO1 111143Z 02018G24KT 03/M11 A3021 RMK A01 T00291113  RH  035%=      5-min Rain = 0
KBO1 111144Z 02021KT 03/M11 A3021 RMK A01 T00291112  RH  035%=      5-min Rain = 0
KBO1 111145Z 02023KT 03/M11 A3021 RMK A01 T00291113  RH  035%=      5-min Rain = 0
KBO1 111146Z 02023G29KT 03/M11 A3021 RMK A01 T00281113  RH  035%=      5-min Rain = 0
KBO1 111147Z 02018KT 03/M11 A3021 RMK A01 T00281113  RH  035%=      5-min Rain = 0
KBO1 111148Z 02018KT 03/M11 A3021 RMK A01 T00281113  RH  035%=      5-min Rain = 0
KBO1 111149Z 02018KT 03/M11 A3021 RMK A01 T00281113  RH  035%=      5-min Rain = 0
KBO1 111150Z 01018G23KT 03/M11 A3022 RMK A01 T00291112  RH  035%=      5-min Rain = 0
KBO1 111151Z 01017G23KT 03/M11 A3022 RMK A01 T00281113  RH  035%=      5-min Rain = 0
KBO1 111152Z 01020KT 03/M11 A3022 RMK A01 T00281113  RH  035%=      5-min Rain = 0
KBO1 111153Z 01020KT 03/M11 A3022 RMK A01 T00281113  RH  035%=      5-min Rain = 0
KBO1 111154Z 01019G24KT 03/M11 A3022 RMK A01 T00281113  RH  035%=      5-min Rain = 0
KBO1 111155Z 01018G24KT 03/M11 A3022 RMK A01 T00281113  RH  035%=      5-min Rain = 0
KBO1 111156Z 01018KT 03/M11 A3022 RMK A01 T00271112  RH  035%=      5-min Rain = 0
KBO1 111157Z 01019KT 03/M11 A3022 RMK A01 T00271112  RH  035%=      5-min Rain = 0
KBO1 111158Z 02017KT 03/M11 A3022 RMK A01 T00271112  RH  035%=      5-min Rain = 0
KBO1 111159Z 01015G20KT 03/M11 A3022 RMK A01 T00271112  RH  035%=      5-min Rain = 0
KBO1 111200Z 01018G23KT 03/M11 A3023 RMK A01 T00261111  RH  035%=      5-min Rain = 0
KBO1 111201Z 02016KT 03/M11 A3023 RMK A01 T00271111  RH  036%=      5-min Rain = 0
KBO1 111202Z 02021G27KT 03/M11 A3023 RMK A01 T00271111  RH  036%=      5-min Rain = 0
KBO1 111203Z 02022KT 03/M11 A3023 RMK A01 T00261111  RH  036%=      5-min Rain = 0
KBO1 111204Z 01018KT 03/M11 A3023 RMK A01 T00261111  RH  036%=      5-min Rain = 0
KBO1 111205Z 02017KT 03/M11 A3023 RMK A01 T00261110  RH  036%=      5-min Rain = 0
KBO1 111206Z 01016KT 03/M11 A3023 RMK A01 T00261110  RH  036%=      5-min Rain = 0
KBO1 111207Z 01018KT 03/M11 A3024 RMK A01 T00261110  RH  036%=      5-min Rain = 0
KBO1 111208Z 01016KT 03/M11 A3024 RMK A01 T00261110  RH  036%=      5-min Rain = 0
KBO1 111209Z 01015KT 03/M11 A3024 RMK A01 T00261110  RH  036%=      5-min Rain = 0
KBO1 111210Z 01016G22KT 03/M11 A3024 RMK A01 T00251110  RH  036%=      5-min Rain = 0
KBO1 111211Z 01014KT 03/M11 A3024 RMK A01 T00251110  RH  036%=      5-min Rain = 0
KBO1 111212Z 00014KT 03/M11 A3024 RMK A01 T00251110  RH  036%=      5-min Rain = 0
KBO1 111213Z 00015KT 03/M11 A3024 RMK A01 T00251110  RH  036%=      5-min Rain = 0
KBO1 111214Z 00019G24KT 03/M11 A3024 RMK A01 T00251110  RH  036%=      5-min Rain = 0
KBO1 111215Z 01019KT 03/M11 A3024 RMK A01 T00251110  RH  036%=      5-min Rain = 0
KBO1 111216Z 01018KT 02/M11 A3025 RMK A01 T00241109  RH  037%=      5-min Rain = 0
KBO1 111217Z 01017KT 02/M11 A3025 RMK A01 T00241109  RH  037%=      5-min Rain = 0
KBO1 111218Z 01019G25KT 02/M11 A3025 RMK A01 T00241109  RH  037%=      5-min Rain = 0
KBO1 111219Z 01017G23KT 02/M11 A3024 RMK A01 T00241108  RH  037%=      5-min Rain = 0
KBO1 111220Z 02016KT 02/M11 A3024 RMK A01 T00241108  RH  037%=      5-min Rain = 0
KBO1 111221Z 02019KT 02/M11 A3024 RMK A01 T00241108  RH  037%=      5-min Rain = 0
KBO1 111222Z 01018KT 02/M11 A3024 RMK A01 T00241108  RH  037%=      5-min Rain = 0
KBO1 111223Z 01016KT 02/M11 A3024 RMK A01 T00241108  RH  037%=      5-min Rain = 0
KBO1 111224Z 01017KT 02/M11 A3024 RMK A01 T00231108  RH  037%=      5-min Rain = 0
KBO1 111225Z 01018KT 02/M11 A3024 RMK A01 T00231108  RH  037%=      5-min Rain = 0
KBO1 111226Z 01017KT 02/M11 A3024 RMK A01 T00231108  RH  037%=      5-min Rain = 0
KBO1 111227Z 01014KT 02/M11 A3024 RMK A01 T00231108  RH  037%=      5-min Rain = 0
KBO1 111228Z 02015G20KT 02/M11 A3024 RMK A01 T00231108  RH  037%=      5-min Rain = 0
KBO1 111229Z 01016KT 02/M11 A3024 RMK A01 T00231108  RH  037%=      5-min Rain = 0
KBO1 111230Z 01016KT 02/M11 A3024 RMK A01 T00231108  RH  037%=      5-min Rain = 0
KBO1 111231Z 01017KT 02/M11 A3024 RMK A01 T00231108  RH  037%=      5-min Rain = 0
KBO1 111232Z 01019KT 02/M11 A3024 RMK A01 T00231108  RH  037%=      5-min Rain = 0
KBO1 111233Z 01017G22KT 02/M11 A3024 RMK A01 T00231108  RH  037%=      5-min Rain = 0
KBO1 111234Z 01016KT 02/M11 A3024 RMK A01 T00231108  RH  038%=      5-min Rain = 0
KBO1 111235Z 01018KT 02/M11 A3025 RMK A01 T00221108  RH  038%=      5-min Rain = 0
KBO1 111236Z 01019KT 02/M11 A3025 RMK A01 T00231107  RH  038%=      5-min Rain = 0
KBO1 111237Z 01020G25KT 02/M11 A3025 RMK A01 T00221107  RH  038%=      5-min Rain = 0
KBO1 111238Z 02019KT 02/M11 A3025 RMK A01 T00221107  RH  038%=      5-min Rain = 0
KBO1 111239Z 02019KT 02/M11 A3024 RMK A01 T00221106  RH  038%=      5-min Rain = 0
KBO1 111240Z 02017KT 02/M11 A3024 RMK A01 T00221106  RH  038%=      5-min Rain = 0
KBO1 111241Z 02015KT 02/M11 A3024 RMK A01 T00211106  RH  038%=      5-min Rain = 0
KBO1 111242Z 02018G23KT 02/M11 A3024 RMK A01 T00211106  RH  038%=      5-min Rain = 0
KBO1 111243Z 02017KT 02/M11 A3024 RMK A01 T00211106  RH  038%=      5-min Rain = 0
KBO1 111244Z 01018KT 02/M11 A3025 RMK A01 T00211106  RH  038%=      5-min Rain = 0
KBO1 111245Z 02017KT 02/M11 A3025 RMK A01 T00211107  RH  038%=      5-min Rain = 0
KBO1 111246Z 01014G19KT 02/M11 A3025 RMK A01 T00211107  RH  038%=      5-min Rain = 0
KBO1 111247Z 01017KT 02/M11 A3025 RMK A01 T00221106  RH  038%=      5-min Rain = 0
KBO1 111248Z 01018KT 02/M11 A3025 RMK A01 T00221107  RH  038%=      5-min Rain = 0
KBO1 111249Z 01015KT 02/M11 A3025 RMK A01 T00211107  RH  038%=      5-min Rain = 0
KBO1 111250Z 01014KT 02/M11 A3025 RMK A01 T00211107  RH  038%=      5-min Rain = 0
KBO1 111251Z 01014KT 02/M11 A3025 RMK A01 T00211107  RH  038%=      5-min Rain = 0
KBO1 111252Z 02014KT 02/M11 A3025 RMK A01 T00211107  RH  038%=      5-min Rain = 0
KBO1 111253Z 02018KT 02/M11 A3025 RMK A01 T00211106  RH  039%=      5-min Rain = 0
KBO1 111254Z 02014KT 02/M11 A3025 RMK A01 T00201105  RH  039%=      5-min Rain = 0
KBO1 111255Z 02017G25KT 02/M11 A3025 RMK A01 T00201105  RH  039%=      5-min Rain = 0
KBO1 111256Z 01019KT 02/M10 A3025 RMK A01 T00201104  RH  039%=      5-min Rain = 0
KBO1 111257Z 01018G23KT 02/M10 A3025 RMK A01 T00201103  RH  040%=      5-min Rain = 0
KBO1 111258Z 01016KT 02/M10 A3025 RMK A01 T00191102  RH  040%=      5-min Rain = 0
KBO1 111259Z 01021G26KT 02/M10 A3025 RMK A01 T00191102  RH  040%=      5-min Rain = 0
KBO1 111300Z 02019KT 02/M10 A3025 RMK A01 T00191102  RH  040%=      5-min Rain = 0
KBO1 111301Z 02016KT 02/M10 A3025 RMK A01 T00191102  RH  040%=      5-min Rain = 0
KBO1 111302Z 01017G22KT 02/M10 A3025 RMK A01 T00181102  RH  041%=      5-min Rain = 0
KBO1 111303Z 02016G21KT 02/M10 A3025 RMK A01 T00181102  RH  040%=      5-min Rain = 0
KBO1 111304Z 01018KT 02/M10 A3025 RMK A01 T00181102  RH  040%=      5-min Rain = 0
KBO1 111305Z 01015KT 02/M10 A3025 RMK A01 T00181103  RH  040%=      5-min Rain = 0
KBO1 111306Z 01016KT 02/M10 A3025 RMK A01 T00181103  RH  040%=      5-min Rain = 0
KBO1 111307Z 01018KT 02/M10 A3025 RMK A01 T00181104  RH  040%=      5-min Rain = 0
KBO1 111308Z 01015KT 02/M10 A3026 RMK A01 T00181104  RH  040%=      5-min Rain = 0
KBO1 111309Z 01015KT 02/M11 A3026 RMK A01 T00181105  RH  040%=      5-min Rain = 0
KBO1 111310Z 01013KT 02/M11 A3026 RMK A01 T00181105  RH  040%=      5-min Rain = 0
KBO1 111311Z 01012KT 02/M11 A3026 RMK A01 T00181106  RH  040%=      5-min Rain = 0
KBO1 111312Z 00013KT 02/M11 A3026 RMK A01 T00181106  RH  039%=      5-min Rain = 0
KBO1 111313Z 01015KT 02/M11 A3026 RMK A01 T00171106  RH  039%=      5-min Rain = 0
KBO1 111314Z 00016KT 02/M11 A3026 RMK A01 T00171106  RH  039%=      5-min Rain = 0
KBO1 111315Z 00014KT 02/M11 A3026 RMK A01 T00181106  RH  039%=      5-min Rain = 0
KBO1 111316Z 00016KT 02/M11 A3026 RMK A01 T00171107  RH  039%=      5-min Rain = 0
KBO1 111317Z 00014KT 02/M11 A3026 RMK A01 T00171107  RH  039%=      5-min Rain = 0
KBO1 111318Z 01016KT 02/M11 A3026 RMK A01 T00161107  RH  039%=      5-min Rain = 0
KBO1 111319Z 01015KT 02/M11 A3026 RMK A01 T00161107  RH  039%=      5-min Rain = 0
KBO1 111320Z 01014KT 02/M11 A3026 RMK A01 T00161107  RH  040%=      5-min Rain = 0
KBO1 111321Z 01013KT 02/M11 A3027 RMK A01 T00161106  RH  040%=      5-min Rain = 0
KBO1 111322Z 01012KT 02/M11 A3027 RMK A01 T00161105  RH  040%=      5-min Rain = 0
KBO1 111323Z 00012G18KT 02/M11 A3027 RMK A01 T00161105  RH  040%=      5-min Rain = 0
KBO1 111324Z 01017KT 02/M10 A3027 RMK A01 T00161104  RH  040%=      5-min Rain = 0
KBO1 111325Z 01014KT 02/M10 A3027 RMK A01 T00161104  RH  041%=      5-min Rain = 0
KBO1 111326Z 01015KT 02/M10 A3027 RMK A01 T00161104  RH  041%=      5-min Rain = 0
KBO1 111327Z 00016KT 02/M10 A3027 RMK A01 T00161104  RH  041%=      5-min Rain = 0
KBO1 111328Z 00016KT 02/M10 A3027 RMK A01 T00151104  RH  041%=      5-min Rain = 0
KBO1 111329Z 01014KT 02/M10 A3027 RMK A01 T00151104  RH  041%=      5-min Rain = 0
KBO1 111330Z 00014KT 02/M10 A3027 RMK A01 T00151103  RH  041%=      5-min Rain = 0
KBO1 111331Z 01014KT 01/M10 A3028 RMK A01 T00141104  RH  041%=      5-min Rain = 0
KBO1 111332Z 00013KT 02/M10 A3028 RMK A01 T00151103  RH  041%=      5-min Rain = 0
KBO1 111333Z 00015KT 01/M10 A3028 RMK A01 T00141103  RH  041%=      5-min Rain = 0
KBO1 111334Z 01018KT 02/M10 A3028 RMK A01 T00151103  RH  041%=      5-min Rain = 0
KBO1 111335Z 00013G18KT 01/M10 A3028 RMK A01 T00141103  RH  041%=      5-min Rain = 0
KBO1 111336Z 00015KT 01/M10 A3028 RMK A01 T00141103  RH  041%=      5-min Rain = 0
KBO1 111337Z 00013KT 01/M10 A3028 RMK A01 T00141103  RH  042%=      5-min Rain = 0
KBO1 111338Z 01017KT 01/M10 A3028 RMK A01 T00141102  RH  042%=      5-min Rain = 0
KBO1 111339Z 01016KT 01/M10 A3028 RMK A01 T00141102  RH  042%=      5-min Rain = 0
KBO1 111340Z 01016KT 01/M10 A3028 RMK A01 T00141102  RH  042%=      5-min Rain = 0
KBO1 111341Z 00014KT 01/M10 A3028 RMK A01 T00141101  RH  042%=      5-min Rain = 0
KBO1 111342Z 01013KT 01/M10 A3028 RMK A01 T00141101  RH  042%=      5-min Rain = 0
KBO1 111343Z 00015KT 01/M10 A3028 RMK A01 T00141101  RH  042%=      5-min Rain = 0
KBO1 111344Z 01013KT 01/M10 A3028 RMK A01 T00141102  RH  042%=      5-min Rain = 0
KBO1 111345Z 01013KT 01/M10 A3028 RMK A01 T00141102  RH  042%=      5-min Rain = 0
KBO1 111346Z 00013KT 01/M10 A3028 RMK A01 T00141102  RH  042%=      5-min Rain = 0
KBO1 111347Z 01016KT 01/M10 A3028 RMK A01 T00141102  RH  042%=      5-min Rain = 0
KBO1 111348Z 00014KT 01/M10 A3028 RMK A01 T00141103  RH  042%=      5-min Rain = 0
KBO1 111349Z 00014KT 01/M10 A3028 RMK A01 T00141103  RH  041%=      5-min Rain = 0
KBO1 111350Z 00017KT 01/M10 A3029 RMK A01 T00141103  RH  041%=      5-min Rain = 0
KBO1 111351Z 01016KT 01/M10 A3029 RMK A01 T00141103  RH  041%=      5-min Rain = 0
KBO1 111352Z 00015KT 01/M10 A3028 RMK A01 T00141103  RH  041%=      5-min Rain = 0
KBO1 111353Z 01014KT 01/M10 A3029 RMK A01 T00141104  RH  041%=      5-min Rain = 0
KBO1 111354Z 00012KT 01/M10 A3029 RMK A01 T00141104  RH  041%=      5-min Rain = 0
KBO1 111355Z 00011KT 01/M10 A3029 RMK A01 T00141104  RH  041%=      5-min Rain = 0
KBO1 111356Z 00016KT 01/M10 A3029 RMK A01 T00141104  RH  041%=      5-min Rain = 0
KBO1 111357Z 36013KT 01/M10 A3029 RMK A01 T00141104  RH  041%=      5-min Rain = 0
KBO1 111358Z 36011KT 01/M11 A3029 RMK A01 T00141105  RH  041%=      5-min Rain = 0
KBO1 111359Z 00012KT 01/M11 A3029 RMK A01 T00141105  RH  041%=      5-min Rain = 0
KBO1 111400Z 01013KT 01/M11 A3029 RMK A01 T00141105  RH  041%=      5-min Rain = 0
KBO1 111401Z 00013KT 01/M11 A3029 RMK A01 T00141105  RH  041%=      5-min Rain = 0
KBO1 111402Z 01014KT 01/M11 A3029 RMK A01 T00141105  RH  041%=      5-min Rain = 0
KBO1 111403Z 00014KT 01/M10 A3029 RMK A01 T00141104  RH  041%=      5-min Rain = 0
KBO1 111404Z 00014KT 01/M10 A3029 RMK A01 T00141103  RH  041%=      5-min Rain = 0
KBO1 111405Z 36014KT 02/M10 A3029 RMK A01 T00151102  RH  041%=      5-min Rain = 0
KBO1 111406Z 01014KT 02/M10 A3029 RMK A01 T00151102  RH  041%=      5-min Rain = 0
KBO1 111407Z 00012KT 02/M10 A3029 RMK A01 T00151102  RH  041%=      5-min Rain = 0
KBO1 111408Z 00016KT 02/M10 A3029 RMK A01 T00161101  RH  042%=      5-min Rain = 0
KBO1 111409Z 00017KT 02/M10 A303 RMK A01 T00161101  RH  042%=      5-min Rain = 0
KBO1 111410Z 00014KT 02/M10 A303 RMK A01 T00151101  RH  042%=      5-min Rain = 0
KBO1 111411Z 01016KT 02/M10 A303 RMK A01 T00151100  RH  042%=      5-min Rain = 0
KBO1 111412Z 00014KT 02/M10 A303 RMK A01 T00151100  RH  042%=      5-min Rain = 0
KBO1 111413Z 01014KT 02/M10 A303 RMK A01 T00161099  RH  042%=      5-min Rain = 0
KBO1 111414Z 00016KT 02/M10 A303 RMK A01 T00161099  RH  042%=      5-min Rain = 0
KBO1 111415Z 01017KT 02/M10 A303 RMK A01 T00161099  RH  042%=      5-min Rain = 0
KBO1 111416Z 00015KT 02/M10 A303 RMK A01 T00161099  RH  042%=      5-min Rain = 0
KBO1 111417Z 01015KT 02/M10 A303 RMK A01 T00161099  RH  042%=      5-min Rain = 0
KBO1 111418Z 00012KT 02/M10 A303 RMK A01 T00161099  RH  042%=      5-min Rain = 0
KBO1 111419Z 01013KT 02/M10 A303 RMK A01 T00171098  RH  042%=      5-min Rain = 0
KBO1 111420Z 00015KT 02/M10 A303 RMK A01 T00171098  RH  042%=      5-min Rain = 0
KBO1 111421Z 00014KT 02/M10 A303 RMK A01 T00171099  RH  042%=      5-min Rain = 0
KBO1 111422Z 36015KT 02/M10 A303 RMK A01 T00181099  RH  042%=      5-min Rain = 0
KBO1 111423Z 00013KT 02/M10 A303 RMK A01 T00171099  RH  042%=      5-min Rain = 0
KBO1 111424Z 00014KT 02/M10 A303 RMK A01 T00171099  RH  042%=      5-min Rain = 0
KBO1 111425Z 00015KT 02/M10 A3031 RMK A01 T00181099  RH  042%=      5-min Rain = 0
KBO1 111426Z 00015KT 02/M10 A3031 RMK A01 T00181099  RH  041%=      5-min Rain = 0
KBO1 111427Z 00015KT 02/M10 A3031 RMK A01 T00181100  RH  041%=      5-min Rain = 0
KBO1 111428Z 36013KT 02/M10 A3031 RMK A01 T00181100  RH  041%=      5-min Rain = 0
KBO1 111429Z 00013G18KT 02/M10 A3031 RMK A01 T00181100  RH  041%=      5-min Rain = 0
KBO1 111430Z 01016KT 02/M10 A3031 RMK A01 T00191100  RH  041%=      5-min Rain = 0
KBO1 111431Z 00012KT 02/M10 A3031 RMK A01 T00191101  RH  041%=      5-min Rain = 0
KBO1 111432Z 35015KT 02/M10 A3031 RMK A01 T00191101  RH  041%=      5-min Rain = 0
KBO1 111433Z 00015KT 02/M10 A3031 RMK A01 T00181102  RH  041%=      5-min Rain = 0
KBO1 111434Z 36015KT 02/M10 A3031 RMK A01 T00181101  RH  041%=      5-min Rain = 0
KBO1 111435Z 36017KT 02/M10 A3031 RMK A01 T00181102  RH  041%=      5-min Rain = 0
KBO1 111436Z 36017KT 02/M10 A3031 RMK A01 T00171102  RH  041%=      5-min Rain = 0
KBO1 111437Z 36014KT 02/M10 A3031 RMK A01 T00161102  RH  041%=      5-min Rain = 0
KBO1 111438Z 01014KT 02/M10 A3031 RMK A01 T00161101  RH  041%=      5-min Rain = 0
KBO1 111439Z 00014KT 02/M10 A3031 RMK A01 T00161101  RH  041%=      5-min Rain = 0
KBO1 111440Z 35014KT 02/M10 A3031 RMK A01 T00161101  RH  041%=      5-min Rain = 0
KBO1 111441Z 00015KT 02/M10 A3031 RMK A01 T00161101  RH  042%=      5-min Rain = 0
KBO1 111442Z 01012KT 02/M10 A3031 RMK A01 T00161101  RH  042%=      5-min Rain = 0
KBO1 111443Z 01013KT 02/M10 A3031 RMK A01 T00161101  RH  042%=      5-min Rain = 0
KBO1 111444Z 00014KT 02/M10 A3031 RMK A01 T00161100  RH  042%=      5-min Rain = 0
KBO1 111445Z 00011KT 02/M10 A3031 RMK A01 T00161100  RH  042%=      5-min Rain = 0
KBO1 111446Z 01015KT 02/M10 A3031 RMK A01 T00171099  RH  042%=      5-min Rain = 0
KBO1 111447Z 00014KT 02/M10 A3032 RMK A01 T00171099  RH  042%=      5-min Rain = 0
KBO1 111448Z 36014KT 02/M10 A3031 RMK A01 T00171099  RH  042%=      5-min Rain = 0
KBO1 111449Z 00016KT 02/M10 A3031 RMK A01 T00171099  RH  042%=      5-min Rain = 0
KBO1 111450Z 00014KT 02/M10 A3032 RMK A01 T00171099  RH  042%=      5-min Rain = 0
KBO1 111451Z 01015KT 02/M10 A3032 RMK A01 T00171100  RH  042%=      5-min Rain = 0
KBO1 111452Z 01014KT 02/M10 A3032 RMK A01 T00161100  RH  042%=      5-min Rain = 0
KBO1 111453Z 01012KT 02/M10 A3032 RMK A01 T00161099  RH  042%=      5-min Rain = 0
KBO1 111454Z 01012KT 02/M10 A3032 RMK A01 T00181098  RH  042%=      5-min Rain = 0
KBO1 111455Z 01015KT 02/M10 A3032 RMK A01 T00191098  RH  042%=      5-min Rain = 0
KBO1 111456Z 01015KT 02/M10 A3032 RMK A01 T00191099  RH  041%=      5-min Rain = 0
KBO1 111457Z 01014KT 02/M10 A3032 RMK A01 T00191100  RH  041%=      5-min Rain = 0
KBO1 111458Z 01014KT 02/M10 A3032 RMK A01 T00191099  RH  041%=      5-min Rain = 0
KBO1 111459Z 00014KT 02/M10 A3032 RMK A01 T00191100  RH  041%=      5-min Rain = 0
KBO1 111500Z 01014KT 02/M10 A3032 RMK A01 T00191100  RH  041%=      5-min Rain = 0
KBO1 111501Z 01015KT 02/M10 A3032 RMK A01 T00201100  RH  041%=      5-min Rain = 0
KBO1 111502Z 02016KT 02/M10 A3032 RMK A01 T00201100  RH  041%=      5-min Rain = 0
KBO1 111503Z 02016KT 02/M10 A3032 RMK A01 T00201100  RH  041%=      5-min Rain = 0
KBO1 111504Z 02015KT 02/M10 A3032 RMK A01 T00201100  RH  041%=      5-min Rain = 0
KBO1 111505Z 01014KT 02/M10 A3032 RMK A01 T00211099  RH  041%=      5-min Rain = 0
KBO1 111506Z 01016G22KT 02/M10 A3032 RMK A01 T00221099  RH  040%=      5-min Rain = 0
KBO1 111507Z 01017KT 02/M10 A3032 RMK A01 T00231100  RH  040%=      5-min Rain = 0
KBO1 111508Z 01016KT 02/M10 A3032 RMK A01 T00241100  RH  040%=      5-min Rain = 0
KBO1 111509Z 01017KT 03/M10 A3032 RMK A01 T00261099  RH  039%=      5-min Rain = 0
KBO1 111510Z 01017KT 03/M10 A3032 RMK A01 T00271100  RH  039%=      5-min Rain = 0
KBO1 111511Z 01016KT 03/M10 A3033 RMK A01 T00281100  RH  038%=      5-min Rain = 0
KBO1 111512Z 01016KT 03/M10 A3032 RMK A01 T00291100  RH  038%=      5-min Rain = 0
KBO1 111513Z 02017KT 03/M10 A3032 RMK A01 T00311099  RH  038%=      5-min Rain = 0
KBO1 111514Z 02018KT 03/M10 A3033 RMK A01 T00311100  RH  037%=      5-min Rain = 0
KBO1 111515Z 01020KT 03/M10 A3033 RMK A01 T00301101  RH  037%=      5-min Rain = 0
KBO1 111516Z 02016KT 03/M10 A3032 RMK A01 T00291102  RH  037%=      5-min Rain = 0
KBO1 111517Z 03018KT 03/M10 A3033 RMK A01 T00281102  RH  038%=      5-min Rain = 0
KBO1 111518Z 02016KT 03/M10 A3032 RMK A01 T00271102  RH  038%=      5-min Rain = 0
KBO1 111519Z 01016KT 03/M10 A3032 RMK A01 T00271102  RH  038%=      5-min Rain = 0
KBO1 111520Z 01016KT 03/M10 A3032 RMK A01 T00271103  RH  038%=      5-min Rain = 0
KBO1 111521Z 01017KT 03/M10 A3032 RMK A01 T00271102  RH  038%=      5-min Rain = 0
KBO1 111522Z 01017KT 03/M10 A3032 RMK A01 T00281103  RH  038%=      5-min Rain = 0
KBO1 111523Z 01016KT 03/M10 A3032 RMK A01 T00261103  RH  038%=      5-min Rain = 0
KBO1 111524Z 02017KT 03/M10 A3032 RMK A01 T00271103  RH  038%=      5-min Rain = 0
KBO1 111525Z 02017KT 03/M10 A3032 RMK A01 T00281103  RH  038%=      5-min Rain = 0
KBO1 111526Z 02017KT 03/M10 A3032 RMK A01 T00271103  RH  038%=      5-min Rain = 0
KBO1 111527Z 03014KT 03/M10 A3032 RMK A01 T00281102  RH  038%=      5-min Rain = 0
KBO1 111528Z 01016KT 03/M10 A3033 RMK A01 T00301101  RH  037%=      5-min Rain = 0
KBO1 111529Z 02018KT 03/M10 A3033 RMK A01 T00311103  RH  037%=      5-min Rain = 0
KBO1 111530Z 02017KT 03/M10 A3033 RMK A01 T00311103  RH  037%=      5-min Rain = 0
KBO1 111531Z 02016KT 03/M10 A3033 RMK A01 T00301104  RH  037%=      5-min Rain = 0
KBO1 111532Z 03019KT 03/M10 A3033 RMK A01 T00311103  RH  037%=      5-min Rain = 0
KBO1 111533Z 03017KT 03/M10 A3033 RMK A01 T00311104  RH  037%=      5-min Rain = 0
KBO1 111534Z 02017KT 03/M10 A3033 RMK A01 T00301104  RH  037%=      5-min Rain = 0
KBO1 111535Z 02018G23KT 03/M10 A3033 RMK A01 T00311104  RH  036%=      5-min Rain = 0
KBO1 111536Z 02019KT 03/M10 A3033 RMK A01 T00311104  RH  036%=      5-min Rain = 0
KBO1 111537Z 02020KT 03/M10 A3033 RMK A01 T00321104  RH  036%=      5-min Rain = 0
KBO1 111538Z 02016KT 03/M10 A3033 RMK A01 T00311104  RH  036%=      5-min Rain = 0
KBO1 111539Z 02015KT 03/M10 A3033 RMK A01 T00331102  RH  036%=      5-min Rain = 0
KBO1 111540Z 02016KT 04/M10 A3033 RMK A01 T00351102  RH  036%=      5-min Rain = 0
KBO1 111541Z 02015KT 04/M10 A3033 RMK A01 T00351103  RH  036%=      5-min Rain = 0
KBO1 111542Z 02014KT 03/M10 A3033 RMK A01 T00341103  RH  036%=      5-min Rain = 0
KBO1 111543Z 02017KT 04/M10 A3033 RMK A01 T00351102  RH  036%=      5-min Rain = 0
KBO1 111544Z 01015G20KT 03/M10 A3033 RMK A01 T00341103  RH  036%=      5-min Rain = 0
KBO1 111545Z 01018KT 04/M10 A3033 RMK A01 T00351102  RH  036%=      5-min Rain = 0
KBO1 111546Z 01016KT 04/M10 A3033 RMK A01 T00361103  RH  036%=      5-min Rain = 0
KBO1 111547Z 02015KT 04/M10 A3034 RMK A01 T00361103  RH  035%=      5-min Rain = 0
KBO1 111548Z 02016KT 04/M10 A3033 RMK A01 T00361103  RH  036%=      5-min Rain = 0
KBO1 111549Z 03013KT 04/M10 A3033 RMK A01 T00361102  RH  036%=      5-min Rain = 0
KBO1 111550Z 02015KT 04/M10 A3033 RMK A01 T00361101  RH  036%=      5-min Rain = 0
KBO1 111551Z 00015KT 04/M10 A3033 RMK A01 T00381100  RH  036%=      5-min Rain = 0
KBO1 111552Z 01018KT 04/M10 A3033 RMK A01 T00381101  RH  035%=      5-min Rain = 0
KBO1 111553Z 01016KT 04/M10 A3033 RMK A01 T00371102  RH  035%=      5-min Rain = 0
KBO1 111554Z 00015KT 04/M10 A3033 RMK A01 T00371102  RH  036%=      5-min Rain = 0
KBO1 111555Z 02015KT 04/M10 A3034 RMK A01 T00371102  RH  035%=      5-min Rain = 0
KBO1 111556Z 01013KT 04/M10 A3034 RMK A01 T00381101  RH  035%=      5-min Rain = 0
KBO1 111557Z 01015KT 04/M10 A3034 RMK A01 T00411100  RH  035%=      5-min Rain = 0
KBO1 111558Z 01015KT 04/M10 A3034 RMK A01 T00431100  RH  034%=      5-min Rain = 0
KBO1 111559Z 01015KT 04/M10 A3034 RMK A01 T00441101  RH  034%=      5-min Rain = 0
KBO1 111600Z 01016G21KT 05/M10 A3034 RMK A01 T00451101  RH  034%=      5-min Rain = 0
KBO1 111601Z 01017KT 05/M10 A3034 RMK A01 T00451103  RH  033%=      5-min Rain = 0
KBO1 111602Z 01017KT 04/M10 A3034 RMK A01 T00441104  RH  033%=      5-min Rain = 0
KBO1 111603Z 02016KT 04/M10 A3034 RMK A01 T00421104  RH  034%=      5-min Rain = 0
KBO1 111604Z 02017G22KT 05/M10 A3034 RMK A01 T00451101  RH  034%=      5-min Rain = 0
KBO1 111605Z 02015G20KT 05/M10 A3034 RMK A01 T00461103  RH  033%=      5-min Rain = 0
KBO1 111606Z 03016KT 05/M10 A3034 RMK A01 T00451103  RH  033%=      5-min Rain = 0
KBO1 111607Z 03013KT 05/M10 A3034 RMK A01 T00461102  RH  033%=      5-min Rain = 0
KBO1 111608Z 01014G19KT 05/M10 A3034 RMK A01 T00491099  RH  033%=      5-min Rain = 0
KBO1 111609Z 01014KT 05/M10 A3034 RMK A01 T00501101  RH  033%=      5-min Rain = 0
KBO1 111610Z 01013G18KT 05/M10 A3034 RMK A01 T00471103  RH  033%=      5-min Rain = 0
KBO1 111611Z 02014KT 05/M10 A3034 RMK A01 T00461103  RH  033%=      5-min Rain = 0
KBO1 111612Z 02012G17KT 05/M10 A3034 RMK A01 T00461102  RH  033%=      5-min Rain = 0
KBO1 111613Z 01014KT 05/M10 A3034 RMK A01 T00491099  RH  033%=      5-min Rain = 0
KBO1 111614Z 01016KT 05/M10 A3034 RMK A01 T00521099  RH  033%=      5-min Rain = 0
KBO1 111615Z 01015KT 05/M10 A3034 RMK A01 T00531100  RH  032%=      5-min Rain = 0
KBO1 111616Z 00015KT 05/M10 A3034 RMK A01 T00531100  RH  032%=      5-min Rain = 0
KBO1 111617Z 00015KT 05/M10 A3034 RMK A01 T00531100  RH  032%=      5-min Rain = 0
KBO1 111618Z 02014KT 05/M10 A3034 RMK A01 T00511102  RH  032%=      5-min Rain = 0
KBO1 111619Z 00015KT 05/M10 A3034 RMK A01 T00511101  RH  032%=      5-min Rain = 0
KBO1 111620Z 00014KT 05/M10 A3034 RMK A01 T00521100  RH  032%=      5-min Rain = 0
KBO1 111621Z 00015KT 06/M10 A3034 RMK A01 T00551099  RH  032%=      5-min Rain = 0
KBO1 111622Z 01013KT 06/M10 A3034 RMK A01 T00561100  RH  032%=      5-min Rain = 0
KBO1 111623Z 01014G19KT 06/M10 A3034 RMK A01 T00591098  RH  031%=      5-min Rain = 0
KBO1 111624Z 00015KT 06/M10 A3034 RMK A01 T00611099  RH  031%=      5-min Rain = 0
KBO1 111625Z 00017KT 06/M10 A3034 RMK A01 T00611100  RH  030%=      5-min Rain = 0
KBO1 111626Z 01015KT 06/M10 A3034 RMK A01 T00611101  RH  030%=      5-min Rain = 0
KBO1 111627Z 01013KT 06/M10 A3034 RMK A01 T00621100  RH  030%=      5-min Rain = 0
KBO1 111628Z 02016KT 06/M10 A3034 RMK A01 T00611101  RH  030%=      5-min Rain = 0
KBO1 111629Z 02015KT 06/M10 A3034 RMK A01 T00581104  RH  030%=      5-min Rain = 0
KBO1 111630Z 03016KT 06/M10 A3035 RMK A01 T00561103  RH  031%=      5-min Rain = 0
KBO1 111631Z 01015KT 06/M10 A3035 RMK A01 T00561102  RH  031%=      5-min Rain = 0
KBO1 111632Z 02015KT 06/M10 A3035 RMK A01 T00581101  RH  031%=      5-min Rain = 0
KBO1 111633Z 01014KT 06/M10 A3035 RMK A01 T00581101  RH  031%=      5-min Rain = 0
KBO1 111634Z 00013KT 06/M10 A3035 RMK A01 T00561103  RH  031%=      5-min Rain = 0
KBO1 111635Z 01014KT 06/M10 A3035 RMK A01 T00581100  RH  031%=      5-min Rain = 0
KBO1 111636Z 01012KT 06/M10 A3035 RMK A01 T00611100  RH  031%=      5-min Rain = 0
KBO1 111637Z 00014KT 06/M10 A3035 RMK A01 T00591102  RH  030%=      5-min Rain = 0
KBO1 111638Z 01014KT 06/M10 A3035 RMK A01 T00611100  RH  030%=      5-min Rain = 0
KBO1 111639Z 03015KT 06/M10 A3035 RMK A01 T00621100  RH  030%=      5-min Rain = 0
KBO1 111640Z 02014KT 06/M10 A3035 RMK A01 T00621100  RH  030%=      5-min Rain = 0
KBO1 111641Z 01016KT 07/M10 A3035 RMK A01 T00651099  RH  030%=      5-min Rain = 0
KBO1 111642Z 00014KT 06/M10 A3035 RMK A01 T00621103  RH  030%=      5-min Rain = 0
KBO1 111643Z 01012KT 06/M10 A3035 RMK A01 T00631101  RH  030%=      5-min Rain = 0
KBO1 111644Z 01012KT 06/M10 A3035 RMK A01 T00641100  RH  030%=      5-min Rain = 0
KBO1 111645Z 02015KT 07/M10 A3035 RMK A01 T00661100  RH  029%=      5-min Rain = 0
KBO1 111646Z 03015KT 07/M10 A3035 RMK A01 T00651101  RH  029%=      5-min Rain = 0
KBO1 111647Z 02014KT 07/M10 A3035 RMK A01 T00671100  RH  029%=      5-min Rain = 0
KBO1 111648Z 00016KT 07/M10 A3034 RMK A01 T00661102  RH  029%=      5-min Rain = 0
KBO1 111649Z 36016KT 07/M10 A3034 RMK A01 T00671102  RH  029%=      5-min Rain = 0
KBO1 111650Z 00014KT 07/M10 A3034 RMK A01 T00661103  RH  029%=      5-min Rain = 0
KBO1 111651Z 01015KT 07/M10 A3034 RMK A01 T00671102  RH  029%=      5-min Rain = 0
KBO1 111652Z 01014KT 07/M10 A3034 RMK A01 T00651104  RH  029%=      5-min Rain = 0
KBO1 111653Z 02011KT 07/M10 A3034 RMK A01 T00651102  RH  029%=      5-min Rain = 0
KBO1 111654Z 03015KT 07/M10 A3034 RMK A01 T00661103  RH  029%=      5-min Rain = 0
KBO1 111655Z 03013KT 06/M10 A3034 RMK A01 T00641104  RH  029%=      5-min Rain = 0
KBO1 111656Z 02015KT 06/M10 A3034 RMK A01 T00631103  RH  029%=      5-min Rain = 0
KBO1 111657Z 01013KT 06/M10 A3034 RMK A01 T00641103  RH  029%=      5-min Rain = 0
KBO1 111658Z 01014G20KT 07/M10 A3034 RMK A01 T00651102  RH  029%=      5-min Rain = 0
KBO1 111659Z 02016G21KT 07/M10 A3034 RMK A01 T00651103  RH  029%=      5-min Rain = 0
KBO1 111700Z 02014KT 06/M10 A3034 RMK A01 T00631104  RH  029%=      5-min Rain = 0
KBO1 111701Z 02016KT 06/M11 A3034 RMK A01 T00611105  RH  029%=      5-min Rain = 0
KBO1 111702Z 03018KT 06/M10 A3034 RMK A01 T00621103  RH  030%=      5-min Rain = 0
KBO1 111703Z 03016KT 06/M10 A3034 RMK A01 T00631103  RH  029%=      5-min Rain = 0
KBO1 111704Z 02016KT 06/M10 A3034 RMK A01 T00641102  RH  029%=      5-min Rain = 0
KBO1 111705Z 02017KT 06/M10 A3034 RMK A01 T00641103  RH  029%=      5-min Rain = 0
KBO1 111706Z 03017KT 06/M10 A3034 RMK A01 T00641103  RH  029%=      5-min Rain = 0
KBO1 111707Z 03017KT 07/M10 A3034 RMK A01 T00651102  RH  029%=      5-min Rain = 0
KBO1 111708Z 02016KT 07/M10 A3034 RMK A01 T00661103  RH  029%=      5-min Rain = 0
KBO1 111709Z 03016KT 07/M10 A3034 RMK A01 T00681102  RH  029%=      5-min Rain = 0
KBO1 111710Z 03018KT 07/M10 A3034 RMK A01 T00701102  RH  028%=      5-min Rain = 0
KBO1 111711Z 03018KT 07/M11 A3034 RMK A01 T00691105  RH  028%=      5-min Rain = 0
KBO1 111712Z 03013KT 07/M11 A3034 RMK A01 T00661107  RH  028%=      5-min Rain = 0
KBO1 111713Z 03013KT 07/M10 A3034 RMK A01 T00661104  RH  029%=      5-min Rain = 0
KBO1 111714Z 03011KT 07/M10 A3034 RMK A01 T00671104  RH  028%=      5-min Rain = 0
KBO1 111715Z 03015KT 07/M10 A3034 RMK A01 T00681102  RH  028%=      5-min Rain = 0
KBO1 111716Z 03010KT 07/M10 A3034 RMK A01 T00681104  RH  028%=      5-min Rain = 0
KBO1 111717Z 03012KT 07/M10 A3034 RMK A01 T00691103  RH  028%=      5-min Rain = 0
KBO1 111718Z 02014KT 07/M10 A3034 RMK A01 T00711103  RH  028%=      5-min Rain = 0
KBO1 111719Z 03016G21KT 07/M10 A3034 RMK A01 T00701104  RH  028%=      5-min Rain = 0
KBO1 111720Z 03015KT 07/M10 A3034 RMK A01 T00701104  RH  028%=      5-min Rain = 0
KBO1 111721Z 02010KT 07/M11 A3034 RMK A01 T00691105  RH  028%=      5-min Rain = 0
KBO1 111722Z 01012KT 07/M10 A3034 RMK A01 T00691104  RH  028%=      5-min Rain = 0
KBO1 111723Z 02013KT 07/M10 A3034 RMK A01 T00711103  RH  028%=      5-min Rain = 0
KBO1 111724Z 01015KT 07/M10 A3034 RMK A01 T00731102  RH  028%=      5-min Rain = 0
KBO1 111725Z 02015KT 07/M10 A3034 RMK A01 T00741102  RH  027%=      5-min Rain = 0
KBO1 111726Z 02014KT 07/M10 A3034 RMK A01 T00741103  RH  027%=      5-min Rain = 0
KBO1 111727Z 03016KT 07/M10 A3034 RMK A01 T00741103  RH  027%=      5-min Rain = 0
KBO1 111728Z 02011KT 07/M10 A3034 RMK A01 T00731103  RH  027%=      5-min Rain = 0
KBO1 111729Z 03015KT 07/M10 A3034 RMK A01 T00731102  RH  028%=      5-min Rain = 0
KBO1 111730Z 00017KT 07/M10 A3034 RMK A01 T00731103  RH  027%=      5-min Rain = 0
KBO1 111731Z 35011KT 07/M11 A3034 RMK A01 T00691106  RH  027%=      5-min Rain = 0
KBO1 111732Z 01014KT 07/M10 A3034 RMK A01 T00701102  RH  028%=      5-min Rain = 0
KBO1 111733Z 01017KT 07/M10 A3034 RMK A01 T00731102  RH  028%=      5-min Rain = 0
KBO1 111734Z 00014KT 07/M11 A3034 RMK A01 T00711105  RH  027%=      5-min Rain = 0
KBO1 111735Z 36013KT 07/M11 A3034 RMK A01 T00691105  RH  028%=      5-min Rain = 0
KBO1 111736Z 02016KT 07/M10 A3034 RMK A01 T00691104  RH  028%=      5-min Rain = 0
KBO1 111737Z 03017KT 07/M10 A3034 RMK A01 T00691104  RH  028%=      5-min Rain = 0
KBO1 111738Z 03015KT 07/M11 A3034 RMK A01 T00691105  RH  028%=      5-min Rain = 0
KBO1 111739Z 02012KT 07/M11 A3034 RMK A01 T00691105  RH  028%=      5-min Rain = 0
KBO1 111740Z 03010KT 07/M10 A3034 RMK A01 T00691103  RH  028%=      5-min Rain = 0
KBO1 111741Z 03014KT 07/M10 A3034 RMK A01 T00721102  RH  028%=      5-min Rain = 0
KBO1 111742Z 03014KT 07/M10 A3034 RMK A01 T00721103  RH  028%=      5-min Rain = 0
KBO1 111743Z 02014KT 08/M10 A3034 RMK A01 T00751101  RH  027%=      5-min Rain = 0
KBO1 111744Z 02009KT 08/M10 A3034 RMK A01 T00761104  RH  027%=      5-min Rain = 0
KBO1 111745Z 01010G15KT 08/M10 A3034 RMK A01 T00751104  RH  027%=      5-min Rain = 0
KBO1 111746Z 02013KT 08/M10 A3034 RMK A01 T00751104  RH  027%=      5-min Rain = 0
KBO1 111747Z 01012G17KT 07/M11 A3034 RMK A01 T00731106  RH  027%=      5-min Rain = 0
KBO1 111748Z 02014KT 07/M10 A3034 RMK A01 T00741104  RH  027%=      5-min Rain = 0
KBO1 111749Z 00013KT 08/M11 A3034 RMK A01 T00751105  RH  027%=      5-min Rain = 0
KBO1 111750Z 02013KT 07/M11 A3034 RMK A01 T00731106  RH  027%=      5-min Rain = 0
KBO1 111751Z 02011KT 07/M11 A3034 RMK A01 T00731105  RH  027%=      5-min Rain = 0
KBO1 111752Z 02011KT 07/M11 A3034 RMK A01 T00731105  RH  027%=      5-min Rain = 0
KBO1 111753Z 04015G21KT 08/M10 A3034 RMK A01 T00801099  RH  027%=      5-min Rain = 0
KBO1 111754Z 01015G20KT 09/M10 A3034 RMK A01 T00851100  RH  026%=      5-min Rain = 0
KBO1 111755Z 02016KT 08/M11 A3034 RMK A01 T00841105  RH  025%=      5-min Rain = 0
KBO1 111756Z 02015KT 08/M10 A3034 RMK A01 T00841103  RH  025%=      5-min Rain = 0
KBO1 111757Z 01014KT 08/M10 A3034 RMK A01 T00831104  RH  025%=      5-min Rain = 0
KBO1 111758Z 01014KT 08/M11 A3034 RMK A01 T00811106  RH  025%=      5-min Rain = 0
KBO1 111759Z 01017KT 09/M10 A3034 RMK A01 T00871099  RH  026%=      5-min Rain = 0
KBO1 111800Z 02016KT 09/M10 A3034 RMK A01 T00881103  RH  025%=      5-min Rain = 0
KBO1 111801Z 03012KT 09/M10 A3034 RMK A01 T00861103  RH  025%=      5-min Rain = 0
KBO1 111802Z 02014G20KT 09/M10 A3034 RMK A01 T00871100  RH  025%=      5-min Rain = 0
KBO1 111803Z 00014KT 09/M10 A3034 RMK A01 T00901102  RH  025%=      5-min Rain = 0
KBO1 111804Z 02011KT 09/M10 A3034 RMK A01 T00891104  RH  024%=      5-min Rain = 0
KBO1 111805Z 36012KT 08/M11 A3034 RMK A01 T00831109  RH  024%=      5-min Rain = 0
KBO1 111806Z 01013KT 08/M11 A3034 RMK A01 T00801108  RH  025%=      5-min Rain = 0
KBO1 111807Z 03014KT 08/M10 A3034 RMK A01 T00831103  RH  026%=      5-min Rain = 0
KBO1 111808Z 03017KT 09/M10 A3034 RMK A01 T00861104  RH  025%=      5-min Rain = 0
KBO1 111809Z 03012KT 09/M11 A3034 RMK A01 T00851107  RH  024%=      5-min Rain = 0
KBO1 111810Z 02016KT 09/M11 A3034 RMK A01 T00861105  RH  025%=      5-min Rain = 0
KBO1 111811Z 02019KT 09/M11 A3034 RMK A01 T00871107  RH  024%=      5-min Rain = 0
KBO1 111812Z 02015G20KT 08/M11 A3034 RMK A01 T00841111  RH  024%=      5-min Rain = 0
KBO1 111813Z 03012KT 08/M11 A3034 RMK A01 T00841107  RH  025%=      5-min Rain = 0
KBO1 111814Z 03008KT 09/M10 A3034 RMK A01 T00871104  RH  025%=      5-min Rain = 0
KBO1 111815Z 03011G17KT 09/M10 A3034 RMK A01 T00891103  RH  025%=      5-min Rain = 0
KBO1 111816Z 04014KT 09/M10 A3034 RMK A01 T00891104  RH  024%=      5-min Rain = 0
KBO1 111817Z 03011KT 09/M11 A3034 RMK A01 T00851107  RH  024%=      5-min Rain = 0
KBO1 111818Z 01012G17KT 09/M10 A3034 RMK A01 T00871104  RH  025%=      5-min Rain = 0
KBO1 111819Z 01014KT 09/M11 A3034 RMK A01 T00911106  RH  024%=      5-min Rain = 0
KBO1 111820Z 02015KT 09/M11 A3034 RMK A01 T00901108  RH  023%=      5-min Rain = 0
KBO1 111821Z 02014KT 09/M11 A3034 RMK A01 T00891107  RH  024%=      5-min Rain = 0
KBO1 111822Z 03014G19KT 09/M11 A3034 RMK A01 T00871107  RH  024%=      5-min Rain = 0
KBO1 111823Z 04014KT 09/M11 A3034 RMK A01 T00861105  RH  025%=      5-min Rain = 0
KBO1 111824Z 04013KT 09/M11 A3034 RMK A01 T00871105  RH  025%=      5-min Rain = 0
KBO1 111825Z 04011KT 08/M11 A3034 RMK A01 T00841107  RH  025%=      5-min Rain = 0
KBO1 111826Z 01012KT 08/M11 A3034 RMK A01 T00841105  RH  025%=      5-min Rain = 0
KBO1 111827Z 00017KT 08/M11 A3034 RMK A01 T00841109  RH  024%=      5-min Rain = 0
KBO1 111828Z 00017KT 08/M11 A3034 RMK A01 T00811111  RH  024%=      5-min Rain = 0
KBO1 111829Z 02015KT 08/M11 A3034 RMK A01 T00841107  RH  025%=      5-min Rain = 0
KBO1 111830Z 02011KT 09/M11 A3034 RMK A01 T00861106  RH  025%=      5-min Rain = 0
KBO1 111831Z 01008KT 08/M11 A3034 RMK A01 T00841107  RH  025%=      5-min Rain = 0
KBO1 111832Z 01013G19KT 08/M11 A3034 RMK A01 T00811110  RH  025%=      5-min Rain = 0
KBO1 111833Z 02015KT 08/M11 A3034 RMK A01 T00801109  RH  025%=      5-min Rain = 0
KBO1 111834Z 01015KT 08/M11 A3034 RMK A01 T00821108  RH  025%=      5-min Rain = 0
KBO1 111835Z 02013KT 09/M11 A3034 RMK A01 T00851108  RH  024%=      5-min Rain = 0
KBO1 111836Z 02014KT 08/M11 A3034 RMK A01 T00831111  RH  024%=      5-min Rain = 0
KBO1 111837Z 02013G18KT 08/M11 A3034 RMK A01 T00831110  RH  024%=      5-min Rain = 0
KBO1 111838Z 03016KT 09/M11 A3034 RMK A01 T00871107  RH  024%=      5-min Rain = 0
KBO1 111839Z 03013KT 09/M11 A3034 RMK A01 T00861110  RH  024%=      5-min Rain = 0
KBO1 111840Z 03012KT 08/M11 A3034 RMK A01 T00841110  RH  024%=      5-min Rain = 0
KBO1 111841Z 01013KT 09/M11 A3034 RMK A01 T00851108  RH  024%=      5-min Rain = 0
KBO1 111842Z 03012KT 08/M11 A3034 RMK A01 T00831111  RH  024%=      5-min Rain = 0
KBO1 111843Z 04011KT 08/M11 A3034 RMK A01 T00821110  RH  024%=      5-min Rain = 0
KBO1 111844Z 04015KT 08/M11 A3034 RMK A01 T00831110  RH  024%=      5-min Rain = 0
KBO1 111845Z 02012KT 08/M11 A3034 RMK A01 T00831109  RH  024%=      5-min Rain = 0
KBO1 111846Z 03010KT 08/M11 A3034 RMK A01 T00821109  RH  025%=      5-min Rain = 0
KBO1 111847Z 02016KT 09/M11 A3034 RMK A01 T00871105  RH  025%=      5-min Rain = 0
KBO1 111848Z 01014KT 09/M11 A3034 RMK A01 T00861108  RH  024%=      5-min Rain = 0
KBO1 111849Z 01014KT 08/M11 A3034 RMK A01 T00841110  RH  024%=      5-min Rain = 0
KBO1 111850Z 01012KT 08/M11 A3034 RMK A01 T00791112  RH  024%=      5-min Rain = 0
KBO1 111851Z 01011G16KT 08/M11 A3034 RMK A01 T00781111  RH  025%=      5-min Rain = 0
KBO1 111852Z 00009G15KT 08/M11 A3034 RMK A01 T00791109  RH  025%=      5-min Rain = 0
KBO1 111853Z 01013G18KT 08/M11 A3034 RMK A01 T00831106  RH  025%=      5-min Rain = 0
KBO1 111854Z 02013KT 08/M11 A3034 RMK A01 T00831108  RH  025%=      5-min Rain = 0
KBO1 111855Z 02013KT 08/M11 A3034 RMK A01 T00811109  RH  025%=      5-min Rain = 0
KBO1 111856Z 02012KT 08/M11 A3034 RMK A01 T00811108  RH  025%=      5-min Rain = 0
KBO1 111857Z 02012KT 08/M11 A3034 RMK A01 T00771109  RH  025%=      5-min Rain = 0
KBO1 111858Z 02009KT 08/M11 A3034 RMK A01 T00771108  RH  026%=      5-min Rain = 0
KBO1 111859Z 01010KT 08/M11 A3034 RMK A01 T00771107  RH  026%=      5-min Rain = 0
KBO1 111900Z 35013KT 08/M11 A3034 RMK A01 T00811105  RH  026%=      5-min Rain = 0
KBO1 111901Z 35010KT 08/M11 A3034 RMK A01 T00821105  RH  025%=      5-min Rain = 0
KBO1 111902Z 35011KT 08/M11 A3034 RMK A01 T00831106  RH  025%=      5-min Rain = 0
KBO1 111903Z 02013KT 08/M11 A3033 RMK A01 T00821106  RH  025%=      5-min Rain = 0
KBO1 111904Z 04014KT 08/M11 A3034 RMK A01 T00831105  RH  025%=      5-min Rain = 0
KBO1 111905Z 03014KT 08/M10 A3034 RMK A01 T00831104  RH  025%=      5-min Rain = 0
KBO1 111906Z 02013KT 08/M10 A3034 RMK A01 T00841103  RH  025%=      5-min Rain = 0
KBO1 111907Z 03013KT 08/M10 A3033 RMK A01 T00841103  RH  025%=      5-min Rain = 0
KBO1 111908Z 02009KT 08/M10 A3033 RMK A01 T00831104  RH  025%=      5-min Rain = 0
KBO1 111909Z 04008KT 08/M11 A3033 RMK A01 T00811105  RH  026%=      5-min Rain = 0
KBO1 111910Z 02009KT 08/M11 A3033 RMK A01 T00791105  RH  026%=      5-min Rain = 0
KBO1 111911Z 03008KT 08/M10 A3033 RMK A01 T00791104  RH  026%=      5-min Rain = 0
KBO1 111912Z 03009G16KT 08/M10 A3033 RMK A01 T00791103  RH  026%=      5-min Rain = 0
KBO1 111913Z 01013KT 08/M10 A3033 RMK A01 T00801103  RH  026%=      5-min Rain = 0
KBO1 111914Z 01010KT 08/M10 A3033 RMK A01 T00811103  RH  026%=      5-min Rain = 0
KBO1 111915Z 00012KT 09/M10 A3033 RMK A01 T00851100  RH  026%=      5-min Rain = 0
KBO1 111916Z 01010KT 09/M10 A3033 RMK A01 T00861103  RH  025%=      5-min Rain = 0
KBO1 111917Z 02011KT 08/M10 A3033 RMK A01 T00841103  RH  025%=      5-min Rain = 0
KBO1 111918Z 01014KT 08/M10 A3033 RMK A01 T00841102  RH  026%=      5-min Rain = 0
KBO1 111919Z 01014G19KT 08/M10 A3033 RMK A01 T00831104  RH  025%=      5-min Rain = 0
KBO1 111920Z 03009KT 08/M11 A3033 RMK A01 T00801106  RH  025%=      5-min Rain = 0
KBO1 111921Z 02009KT 08/M11 A3033 RMK A01 T00781105  RH  026%=      5-min Rain = 0
KBO1 111922Z 35009KT 08/M10 A3033 RMK A01 T00781103  RH  026%=      5-min Rain = 0
KBO1 111923Z 35011KT 08/M10 A3033 RMK A01 T00811102  RH  026%=      5-min Rain = 0
KBO1 111924Z 01009KT 08/M10 A3033 RMK A01 T00811103  RH  026%=      5-min Rain = 0
KBO1 111925Z 35009KT 08/M10 A3033 RMK A01 T00811103  RH  026%=      5-min Rain = 0
KBO1 111926Z 00011KT 08/M10 A3033 RMK A01 T00821102  RH  026%=      5-min Rain = 0
KBO1 111927Z 01010KT 08/M10 A3033 RMK A01 T00831102  RH  026%=      5-min Rain = 0
KBO1 111928Z 01013G18KT 08/M10 A3032 RMK A01 T00831102  RH  026%=      5-min Rain = 0
KBO1 111929Z 01013KT 08/M10 A3033 RMK A01 T00841101  RH  026%=      5-min Rain = 0
KBO1 111930Z 01010KT 09/M10 A3033 RMK A01 T00861101  RH  026%=      5-min Rain = 0
KBO1 111931Z 02008KT 09/M10 A3033 RMK A01 T00861101  RH  025%=      5-min Rain = 0
KBO1 111932Z 03009KT 09/M10 A3033 RMK A01 T00891100  RH  025%=      5-min Rain = 0
KBO1 111933Z 04010KT 09/M10 A3032 RMK A01 T00891101  RH  025%=      5-min Rain = 0
KBO1 111934Z 03013KT 09/M10 A3033 RMK A01 T00901101  RH  025%=      5-min Rain = 0
KBO1 111935Z 02010KT 09/M10 A3033 RMK A01 T00881104  RH  025%=      5-min Rain = 0
KBO1 111936Z 02013KT 09/M10 A3033 RMK A01 T00861103  RH  025%=      5-min Rain = 0
KBO1 111937Z 02011KT 09/M10 A3033 RMK A01 T00881102  RH  025%=      5-min Rain = 0
KBO1 111938Z 01012KT 09/M10 A3033 RMK A01 T00881103  RH  025%=      5-min Rain = 0
KBO1 111939Z 00014KT 09/M10 A3032 RMK A01 T00891103  RH  025%=      5-min Rain = 0
KBO1 111940Z 00011G16KT 09/M11 A3033 RMK A01 T00881105  RH  024%=      5-min Rain = 0
KBO1 111941Z 36012KT 09/M11 A3033 RMK A01 T00871105  RH  024%=      5-min Rain = 0
KBO1 111942Z 01015KT 09/M10 A3033 RMK A01 T00881103  RH  025%=      5-min Rain = 0
KBO1 111943Z 00014KT 09/M10 A3033 RMK A01 T00921101  RH  024%=      5-min Rain = 0
KBO1 111944Z 35013KT 09/M10 A3032 RMK A01 T00931102  RH  024%=      5-min Rain = 0
KBO1 111945Z 34013KT 09/M10 A3032 RMK A01 T00921104  RH  024%=      5-min Rain = 0
KBO1 111946Z 34015KT 09/M10 A3032 RMK A01 T00921103  RH  024%=      5-min Rain = 0
KBO1 111947Z 34013KT 09/M11 A3032 RMK A01 T00901105  RH  024%=      5-min Rain = 0
KBO1 111948Z 35012KT 09/M10 A3032 RMK A01 T00901103  RH  024%=      5-min Rain = 0
KBO1 111949Z 00008KT 09/M10 A3032 RMK A01 T00911103  RH  024%=      5-min Rain = 0
KBO1 111950Z 04010KT 10/M10 A3032 RMK A01 T00951100  RH  024%=      5-min Rain = 0
KBO1 111951Z 03013KT 10/M10 A3032 RMK A01 T00951101  RH  024%=      5-min Rain = 0
KBO1 111952Z 03013KT 10/M10 A3032 RMK A01 T00951101  RH  024%=      5-min Rain = 0
KBO1 111953Z 03012KT 10/M10 A3032 RMK A01 T00961101  RH  024%=      5-min Rain = 0
KBO1 111954Z 03012KT 10/M10 A3032 RMK A01 T00951101  RH  024%=      5-min Rain = 0
KBO1 111955Z 03013KT 10/M10 A3032 RMK A01 T00971098  RH  024%=      5-min Rain = 0
KBO1 111956Z 03013KT 10/M10 A3032 RMK A01 T00981100  RH  024%=      5-min Rain = 0
KBO1 111957Z 03013KT 09/M10 A3032 RMK A01 T00941102  RH  024%=      5-min Rain = 0
KBO1 111958Z 02014KT 09/M10 A3032 RMK A01 T00941101  RH  024%=      5-min Rain = 0
KBO1 111959Z 02013KT 09/M10 A3032 RMK A01 T00921103  RH  024%=      5-min Rain = 0
KBO1 112000Z 03012KT 09/M10 A3032 RMK A01 T00901103  RH  024%=      5-min Rain = 0
KBO1 112001Z 02008KT 09/M10 A3032 RMK A01 T00881103  RH  025%=      5-min Rain = 0
KBO1 112002Z 03009KT 09/M10 A3032 RMK A01 T00891101  RH  025%=      5-min Rain = 0
KBO1 112003Z 02008KT 09/M10 A3032 RMK A01 T00901100  RH  025%=      5-min Rain = 0
KBO1 112004Z 01015KT 09/M10 A3032 RMK A01 T00921099  RH  025%=      5-min Rain = 0
KBO1 112005Z 02014KT 09/M10 A3032 RMK A01 T00921099  RH  025%=      5-min Rain = 0
KBO1 112006Z 00009KT 09/M10 A3031 RMK A01 T00891100  RH  025%=      5-min Rain = 0
KBO1 112007Z 35010KT 09/M10 A3031 RMK A01 T00891099  RH  025%=      5-min Rain = 0
KBO1 112008Z 01010G17KT 09/M10 A3031 RMK A01 T00911098  RH  025%=      5-min Rain = 0
KBO1 112009Z 03014KT 09/M10 A3032 RMK A01 T00921097  RH  025%=      5-min Rain = 0
KBO1 112010Z 02009KT 09/M10 A3031 RMK A01 T00921096  RH  025%=      5-min Rain = 0
KBO1 112011Z 04009KT 09/M10 A3031 RMK A01 T00931096  RH  025%=      5-min Rain = 0
KBO1 112012Z 04011KT 09/M10 A3031 RMK A01 T00931097  RH  025%=      5-min Rain = 0
KBO1 112013Z 35009KT 09/M10 A3031 RMK A01 T00941096  RH  025%=      5-min Rain = 0
KBO1 112014Z 36010KT 09/M10 A3031 RMK A01 T00941097  RH  025%=      5-min Rain = 0
KBO1 112015Z 36012KT 09/M10 A3031 RMK A01 T00931098  RH  025%=      5-min Rain = 0
KBO1 112016Z 36011KT 09/M10 A3031 RMK A01 T00921097  RH  025%=      5-min Rain = 0
KBO1 112017Z 36010KT 10/M10 A3031 RMK A01 T00961095  RH  025%=      5-min Rain = 0
KBO1 112018Z 02011G17KT 10/M10 A3031 RMK A01 T00961095  RH  025%=      5-min Rain = 0
KBO1 112019Z 01011KT 10/M09 A3031 RMK A01 T00981094  RH  025%=      5-min Rain = 0
KBO1 112020Z 01010KT 10/M10 A3031 RMK A01 T00971095  RH  025%=      5-min Rain = 0
KBO1 112021Z 03010G23KT 10/M10 A3031 RMK A01 T00961096  RH  025%=      5-min Rain = 0
KBO1 112022Z 03013G23KT 10/M09 A3031 RMK A01 T00951094  RH  025%=      5-min Rain = 0
KBO1 112023Z 04011KT 10/M09 A3031 RMK A01 T00961094  RH  025%=      5-min Rain = 0
KBO1 112024Z 04009KT 10/M09 A3031 RMK A01 T00971094  RH  025%=      5-min Rain = 0
KBO1 112025Z 04011KT 10/M09 A3031 RMK A01 T01011090  RH  025%=      5-min Rain = 0
KBO1 112026Z 04008KT 10/M09 A3031 RMK A01 T01001094  RH  025%=      5-min Rain = 0
KBO1 112027Z 02009KT 10/M09 A3031 RMK A01 T00991094  RH  025%=      5-min Rain = 0
KBO1 112028Z 01011KT 10/M09 A3031 RMK A01 T00981094  RH  025%=      5-min Rain = 0
KBO1 112029Z 01013KT 10/M09 A3031 RMK A01 T00991094  RH  025%=      5-min Rain = 0
KBO1 112030Z 01012KT 10/M10 A3031 RMK A01 T00961096  RH  025%=      5-min Rain = 0
KBO1 112031Z 02012KT 10/M10 A3031 RMK A01 T00961095  RH  025%=      5-min Rain = 0
KBO1 112032Z 01008KT 10/M10 A3031 RMK A01 T00971095  RH  025%=      5-min Rain = 0
KBO1 112033Z 35009KT 10/M10 A3031 RMK A01 T00961095  RH  025%=      5-min Rain = 0
KBO1 112034Z 34010KT 10/M10 A3031 RMK A01 T00971095  RH  025%=      5-min Rain = 0
KBO1 112035Z 33009KT 10/M09 A3031 RMK A01 T00981094  RH  025%=      5-min Rain = 0
KBO1 112036Z 34009KT 10/M10 A303 RMK A01 T00981095  RH  025%=      5-min Rain = 0
KBO1 112037Z 33009KT 10/M10 A303 RMK A01 T00981095  RH  025%=      5-min Rain = 0
KBO1 112038Z 00012KT 10/M09 A303 RMK A01 T00991094  RH  025%=      5-min Rain = 0
KBO1 112039Z 02011KT 10/M09 A303 RMK A01 T01021093  RH  024%=      5-min Rain = 0
KBO1 112040Z 02014KT 10/M09 A303 RMK A01 T01031094  RH  024%=      5-min Rain = 0
KBO1 112041Z 02014KT 11/M09 A303 RMK A01 T01051093  RH  024%=      5-min Rain = 0
KBO1 112042Z 01014KT 11/M09 A303 RMK A01 T01061094  RH  024%=      5-min Rain = 0
KBO1 112043Z 02011KT 10/M10 A303 RMK A01 T01041095  RH  024%=      5-min Rain = 0
KBO1 112044Z 35012G17KT 10/M09 A303 RMK A01 T01041093  RH  024%=      5-min Rain = 0
KBO1 112045Z 01011G16KT 11/M09 A303 RMK A01 T01051093  RH  024%=      5-min Rain = 0
KBO1 112046Z 00008KT 10/M10 A303 RMK A01 T01011097  RH  024%=      5-min Rain = 0
KBO1 112047Z 36010KT 10/M09 A303 RMK A01 T01011093  RH  024%=      5-min Rain = 0
KBO1 112048Z 02009KT 10/M09 A303 RMK A01 T01041091  RH  024%=      5-min Rain = 0
KBO1 112049Z 04007KT 11/M09 A303 RMK A01 T01071090  RH  024%=      5-min Rain = 0
KBO1 112050Z 01009KT 11/M09 A303 RMK A01 T01081091  RH  024%=      5-min Rain = 0
KBO1 112051Z 03009KT 11/M09 A303 RMK A01 T01141087  RH  024%=      5-min Rain = 0
KBO1 112052Z 01011KT 11/M09 A303 RMK A01 T01121093  RH  023%=      5-min Rain = 0
KBO1 112053Z 02014KT 11/M09 A303 RMK A01 T01091093  RH  023%=      5-min Rain = 0
KBO1 112054Z 01012KT 11/M09 A303 RMK A01 T01101092  RH  023%=      5-min Rain = 0
KBO1 112055Z 01012KT 11/M09 A303 RMK A01 T01091092  RH  023%=      5-min Rain = 0
KBO1 112056Z 36010KT 11/M09 A303 RMK A01 T01101091  RH  023%=      5-min Rain = 0
KBO1 112057Z 34011KT 11/M09 A303 RMK A01 T01121092  RH  023%=      5-min Rain = 0
KBO1 112058Z 32006KT 11/M09 A3029 RMK A01 T01101094  RH  023%=      5-min Rain = 0
KBO1 112059Z 35009G17KT 11/M09 A3029 RMK A01 T01081093  RH  023%=      5-min Rain = 0
KBO1 112100Z 00014KT 11/M09 A303 RMK A01 T01101093  RH  023%=      5-min Rain = 0
KBO1 112101Z 01011KT 11/M09 A303 RMK A01 T01101093  RH  023%=      5-min Rain = 0
KBO1 112102Z 02009G14KT 11/M10 A303 RMK A01 T01091095  RH  023%=      5-min Rain = 0
KBO1 112103Z 00012G17KT 11/M10 A303 RMK A01 T01061096  RH  023%=      5-min Rain = 0
KBO1 112104Z 02013KT 11/M10 A303 RMK A01 T01051096  RH  023%=      5-min Rain = 0
KBO1 112105Z 01013KT 11/M10 A303 RMK A01 T01051098  RH  023%=      5-min Rain = 0
KBO1 112106Z 02014KT 10/M10 A303 RMK A01 T01031099  RH  023%=      5-min Rain = 0
KBO1 112107Z 02011KT 10/M10 A303 RMK A01 T01011100  RH  023%=      5-min Rain = 0
KBO1 112108Z 02011KT 10/M10 A303 RMK A01 T00991099  RH  024%=      5-min Rain = 0
KBO1 112109Z 02012KT 10/M10 A303 RMK A01 T01011096  RH  024%=      5-min Rain = 0
KBO1 112110Z 02012KT 10/M10 A303 RMK A01 T01031096  RH  024%=      5-min Rain = 0
KBO1 112111Z 02009KT 10/M10 A303 RMK A01 T01041095  RH  024%=      5-min Rain = 0
KBO1 112112Z 02010KT 11/M09 A303 RMK A01 T01071092  RH  024%=      5-min Rain = 0
KBO1 112113Z 03009KT 11/M09 A303 RMK A01 T01101094  RH  023%=      5-min Rain = 0
KBO1 112114Z 02011KT 11/M10 A303 RMK A01 T01091096  RH  023%=      5-min Rain = 0
KBO1 112115Z 01014KT 11/M10 A303 RMK A01 T01071098  RH  023%=      5-min Rain = 0
KBO1 112116Z 01014KT 11/M10 A303 RMK A01 T01081097  RH  023%=      5-min Rain = 0
KBO1 112117Z 02012KT 11/M10 A303 RMK A01 T01081097  RH  023%=      5-min Rain = 0
KBO1 112118Z 02015KT 11/M10 A303 RMK A01 T01091096  RH  023%=      5-min Rain = 0
KBO1 112119Z 01016KT 11/M10 A303 RMK A01 T01081097  RH  023%=      5-min Rain = 0
KBO1 112120Z 01013KT 11/M10 A303 RMK A01 T01071097  RH  023%=      5-min Rain = 0
KBO1 112121Z 35010KT 11/M10 A303 RMK A01 T01061097  RH  023%=      5-min Rain = 0
KBO1 112122Z 34013KT 11/M10 A303 RMK A01 T01051098  RH  023%=      5-min Rain = 0
KBO1 112123Z 34011G16KT 10/M10 A303 RMK A01 T01041098  RH  023%=      5-min Rain = 0
KBO1 112124Z 35012KT 10/M10 A303 RMK A01 T01041098  RH  023%=      5-min Rain = 0
KBO1 112125Z 36010KT 11/M10 A303 RMK A01 T01051098  RH  023%=      5-min Rain = 0
KBO1 112126Z 03009KT 10/M10 A303 RMK A01 T01041098  RH  023%=      5-min Rain = 0
KBO1 112127Z 04009KT 11/M10 A303 RMK A01 T01051097  RH  023%=      5-min Rain = 0
KBO1 112128Z 02009KT 11/M10 A303 RMK A01 T01051098  RH  023%=      5-min Rain = 0
KBO1 112129Z 01006KT 11/M10 A3029 RMK A01 T01051098  RH  023%=      5-min Rain = 0
KBO1 112130Z 01005KT 11/M10 A3029 RMK A01 T01051097  RH  023%=      5-min Rain = 0
KBO1 112131Z 01008G14KT 11/M10 A3029 RMK A01 T01071097  RH  023%=      5-min Rain = 0
KBO1 112132Z 01012KT 11/M10 A3029 RMK A01 T01101097  RH  022%=      5-min Rain = 0
KBO1 112133Z 35010KT 11/M10 A3029 RMK A01 T01111100  RH  022%=      5-min Rain = 0
KBO1 112134Z 35011G24KT 11/M10 A3029 RMK A01 T01101103  RH  021%=      5-min Rain = 0
KBO1 112135Z 04018G23KT 11/M10 A3029 RMK A01 T01091104  RH  021%=      5-min Rain = 0
KBO1 112136Z 03013KT 11/M11 A3029 RMK A01 T01101105  RH  021%=      5-min Rain = 0
KBO1 112137Z 03015KT 11/M11 A3029 RMK A01 T01121105  RH  021%=      5-min Rain = 0
KBO1 112138Z 01015KT 11/M10 A3029 RMK A01 T01141103  RH  021%=      5-min Rain = 0
KBO1 112139Z 02013KT 12/M10 A3029 RMK A01 T01151104  RH  020%=      5-min Rain = 0
KBO1 112140Z 02012KT 11/M11 A3029 RMK A01 T01131105  RH  021%=      5-min Rain = 0
KBO1 112141Z 01013KT 11/M10 A3029 RMK A01 T01131102  RH  021%=      5-min Rain = 0
KBO1 112142Z 02012KT 12/M10 A3029 RMK A01 T01151100  RH  021%=      5-min Rain = 0
KBO1 112143Z 02009KT 12/M10 A3029 RMK A01 T01161099  RH  021%=      5-min Rain = 0
KBO1 112144Z 02012G18KT 12/M10 A3029 RMK A01 T01171099  RH  021%=      5-min Rain = 0
KBO1 112145Z 01011KT 11/M11 A3029 RMK A01 T01121106  RH  021%=      5-min Rain = 0
KBO1 112146Z 01013KT 11/M11 A3029 RMK A01 T01081107  RH  021%=      5-min Rain = 0
KBO1 112147Z 01013KT 11/M11 A3029 RMK A01 T01061108  RH  021%=      5-min Rain = 0
KBO1 112148Z 02016KT 11/M11 A3029 RMK A01 T01051109  RH  021%=      5-min Rain = 0
KBO1 112149Z 02013KT 10/M11 A3029 RMK A01 T01041109  RH  021%=      5-min Rain = 0
KBO1 112150Z 02012KT 10/M11 A3029 RMK A01 T01031107  RH  022%=      5-min Rain = 0
KBO1 112151Z 03011KT 11/M11 A3029 RMK A01 T01051105  RH  022%=      5-min Rain = 0
KBO1 112152Z 02011KT 11/M11 A3029 RMK A01 T01061106  RH  021%=      5-min Rain = 0
KBO1 112153Z 02016KT 11/M11 A3029 RMK A01 T01061106  RH  021%=      5-min Rain = 0
KBO1 112154Z 03011KT 11/M11 A3029 RMK A01 T01051109  RH  021%=      5-min Rain = 0
KBO1 112155Z 03012KT 10/M11 A3029 RMK A01 T01041109  RH  021%=      5-min Rain = 0
KBO1 112156Z 01013KT 10/M11 A3029 RMK A01 T01041110  RH  021%=      5-min Rain = 0
KBO1 112157Z 01014KT 10/M11 A303 RMK A01 T01031110  RH  021%=      5-min Rain = 0
KBO1 112158Z 36011KT 10/M11 A3029 RMK A01 T01011110  RH  021%=      5-min Rain = 0
KBO1 112159Z 00010KT 10/M11 A3029 RMK A01 T00991110  RH  022%=      5-min Rain = 0
KBO1 112200Z 01012KT 10/M11 A3029 RMK A01 T01011107  RH  022%=      5-min Rain = 0
KBO1 112201Z 02009KT 10/M11 A3029 RMK A01 T01041106  RH  022%=      5-min Rain = 0
KBO1 112202Z 35011G17KT 11/M11 A3029 RMK A01 T01081105  RH  021%=      5-min Rain = 0
KBO1 112203Z 35015KT 11/M11 A3029 RMK A01 T01101106  RH  021%=      5-min Rain = 0
KBO1 112204Z 34011KT 11/M11 A3029 RMK A01 T01081108  RH  021%=      5-min Rain = 0
KBO1 112205Z 35009KT 11/M11 A3029 RMK A01 T01051110  RH  021%=      5-min Rain = 0
KBO1 112206Z 00009KT 10/M11 A3029 RMK A01 T01031107  RH  022%=      5-min Rain = 0
KBO1 112207Z 03011KT 11/M11 A3029 RMK A01 T01051105  RH  022%=      5-min Rain = 0
KBO1 112208Z 02010KT 11/M10 A3029 RMK A01 T01071103  RH  022%=      5-min Rain = 0
KBO1 112209Z 01009KT 11/M11 A303 RMK A01 T01061106  RH  021%=      5-min Rain = 0
KBO1 112210Z 02006KT 10/M11 A3029 RMK A01 T01021107  RH  022%=      5-min Rain = 0
KBO1 112211Z 03009KT 10/M11 A3029 RMK A01 T01011106  RH  022%=      5-min Rain = 0
KBO1 112212Z 03011KT 10/M10 A3029 RMK A01 T01011104  RH  022%=      5-min Rain = 0
KBO1 112213Z 03013KT 10/M10 A3029 RMK A01 T01041103  RH  022%=      5-min Rain = 0
KBO1 112214Z 03010KT 10/M11 A3029 RMK A01 T01031105  RH  022%=      5-min Rain = 0
KBO1 112215Z 04008KT 10/M11 A3029 RMK A01 T01001106  RH  022%=      5-min Rain = 0
KBO1 112216Z 03010KT 10/M11 A3029 RMK A01 T00991106  RH  022%=      5-min Rain = 0
KBO1 112217Z 03010KT 10/M11 A3029 RMK A01 T01001105  RH  023%=      5-min Rain = 0
KBO1 112218Z 02010KT 10/M11 A3029 RMK A01 T01001105  RH  022%=      5-min Rain = 0
KBO1 112219Z 02012KT 10/M11 A3029 RMK A01 T01021105  RH  022%=      5-min Rain = 0
KBO1 112220Z 02013KT 10/M11 A303 RMK A01 T01021105  RH  022%=      5-min Rain = 0
KBO1 112221Z 01012KT 10/M11 A303 RMK A01 T01041105  RH  022%=      5-min Rain = 0
KBO1 112222Z 01011KT 11/M11 A303 RMK A01 T01061105  RH  022%=      5-min Rain = 0
KBO1 112223Z 01012KT 11/M11 A303 RMK A01 T01071106  RH  021%=      5-min Rain = 0
KBO1 112224Z 36010KT 11/M11 A303 RMK A01 T01061108  RH  021%=      5-min Rain = 0
KBO1 112225Z 34007KT 11/M11 A3029 RMK A01 T01051109  RH  021%=      5-min Rain = 0
KBO1 112226Z 36005KT 11/M11 A3029 RMK A01 T01051108  RH  021%=      5-min Rain = 0
KBO1 112227Z 04007G12KT 11/M11 A303 RMK A01 T01051107  RH  021%=      5-min Rain = 0
KBO1 112228Z 04010KT 11/M11 A303 RMK A01 T01071106  RH  021%=      5-min Rain = 0
KBO1 112229Z 03010KT 11/M11 A303 RMK A01 T01061108  RH  021%=      5-min Rain = 0
KBO1 112230Z 04008KT 10/M11 A303 RMK A01 T01041110  RH  021%=      5-min Rain = 0
KBO1 112231Z 03011KT 10/M11 A303 RMK A01 T01031108  RH  021%=      5-min Rain = 0
KBO1 112232Z 03007KT 10/M11 A303 RMK A01 T01031108  RH  021%=      5-min Rain = 0
KBO1 112233Z 01006KT 10/M11 A303 RMK A01 T01021108  RH  022%=      5-min Rain = 0
KBO1 112234Z 35007KT 10/M11 A303 RMK A01 T01041107  RH  022%=      5-min Rain = 0
KBO1 112235Z 35008KT 11/M11 A303 RMK A01 T01061106  RH  021%=      5-min Rain = 0
KBO1 112236Z 00006KT 11/M11 A303 RMK A01 T01081106  RH  021%=      5-min Rain = 0
KBO1 112237Z 02007KT 11/M11 A303 RMK A01 T01091106  RH  021%=      5-min Rain = 0
KBO1 112238Z 03007KT 11/M11 A303 RMK A01 T01071107  RH  021%=      5-min Rain = 0
KBO1 112239Z 03007KT 11/M11 A303 RMK A01 T01061107  RH  021%=      5-min Rain = 0
KBO1 112240Z 02007KT 10/M11 A303 RMK A01 T01041108  RH  021%=      5-min Rain = 0
KBO1 112241Z 00009KT 10/M11 A303 RMK A01 T01021108  RH  022%=      5-min Rain = 0
KBO1 112242Z 01007KT 10/M11 A303 RMK A01 T01021107  RH  022%=      5-min Rain = 0
KBO1 112243Z 02005KT 11/M10 A303 RMK A01 T01051104  RH  022%=      5-min Rain = 0
KBO1 112244Z 34004KT 11/M10 A303 RMK A01 T01071104  RH  022%=      5-min Rain = 0
KBO1 112245Z 36007KT 11/M10 A303 RMK A01 T01101103  RH  021%=      5-min Rain = 0
KBO1 112246Z 01009KT 11/M10 A303 RMK A01 T01131102  RH  021%=      5-min Rain = 0
KBO1 112247Z 04009KT 11/M11 A303 RMK A01 T01091107  RH  021%=      5-min Rain = 0
KBO1 112248Z 03013KT 11/M11 A303 RMK A01 T01061107  RH  021%=      5-min Rain = 0
KBO1 112249Z 03012KT 11/M11 A303 RMK A01 T01051106  RH  022%=      5-min Rain = 0
KBO1 112250Z 03012KT 10/M11 A303 RMK A01 T01041107  RH  022%=      5-min Rain = 0
KBO1 112251Z 04010KT 10/M11 A303 RMK A01 T01031106  RH  022%=      5-min Rain = 0
KBO1 112252Z 04008KT 10/M11 A303 RMK A01 T01031106  RH  022%=      5-min Rain = 0
KBO1 112253Z 03008KT 10/M11 A303 RMK A01 T01031107  RH  022%=      5-min Rain = 0
KBO1 112254Z 03007KT 10/M11 A303 RMK A01 T01021107  RH  022%=      5-min Rain = 0
KBO1 112255Z 05008KT 10/M11 A303 RMK A01 T01031105  RH  022%=      5-min Rain = 0
KBO1 112256Z 05007KT 11/M10 A303 RMK A01 T01061104  RH  022%=      5-min Rain = 0
KBO1 112257Z 05005KT 11/M10 A303 RMK A01 T01071104  RH  022%=      5-min Rain = 0
KBO1 112258Z 05006KT 11/M11 A303 RMK A01 T01071105  RH  021%=      5-min Rain = 0
KBO1 112259Z 02006KT 11/M11 A303 RMK A01 T01071105  RH  021%=      5-min Rain = 0
KBO1 112300Z 01008KT 11/M11 A303 RMK A01 T01071105  RH  021%=      5-min Rain = 0
KBO1 112301Z 01008KT 11/M11 A303 RMK A01 T01071105  RH  021%=      5-min Rain = 0
KBO1 112302Z 02011KT 11/M11 A303 RMK A01 T01061105  RH  021%=      5-min Rain = 0
KBO1 112303Z 02011KT 11/M11 A303 RMK A01 T01051106  RH  021%=      5-min Rain = 0
KBO1 112304Z 02012KT 10/M11 A303 RMK A01 T01031107  RH  022%=      5-min Rain = 0
KBO1 112305Z 02009KT 10/M11 A303 RMK A01 T01011108  RH  022%=      5-min Rain = 0
KBO1 112306Z 02009KT 10/M11 A303 RMK A01 T01011106  RH  022%=      5-min Rain = 0
KBO1 112307Z 01009KT 10/M11 A303 RMK A01 T01011107  RH  022%=      5-min Rain = 0
KBO1 112308Z 01010KT 10/M11 A303 RMK A01 T01011107  RH  022%=      5-min Rain = 0
KBO1 112309Z 36011KT 10/M11 A303 RMK A01 T01001107  RH  022%=      5-min Rain = 0
KBO1 112310Z 35010KT 10/M11 A303 RMK A01 T00991108  RH  022%=      5-min Rain = 0
KBO1 112311Z 35009KT 10/M11 A303 RMK A01 T00991108  RH  022%=      5-min Rain = 0
KBO1 112312Z 35008KT 10/M11 A303 RMK A01 T00991108  RH  022%=      5-min Rain = 0
KBO1 112313Z 36008KT 10/M11 A303 RMK A01 T01001107  RH  022%=      5-min Rain = 0
KBO1 112314Z 00008KT 10/M11 A303 RMK A01 T01011107  RH  022%=      5-min Rain = 0
KBO1 112315Z 01009G14KT 10/M11 A303 RMK A01 T01031106  RH  022%=      5-min Rain = 0
KBO1 112316Z 36012KT 10/M11 A3031 RMK A01 T01041106  RH  022%=      5-min Rain = 0
KBO1 112317Z 36013KT 11/M11 A3031 RMK A01 T01051106  RH  022%=      5-min Rain = 0
KBO1 112318Z 36012KT 10/M11 A3031 RMK A01 T01041107  RH  022%=      5-min Rain = 0
KBO1 112319Z 00011KT 10/M11 A3031 RMK A01 T01041107  RH  022%=      5-min Rain = 0
KBO1 112320Z 35012KT 10/M11 A3031 RMK A01 T01031107  RH  022%=      5-min Rain = 0
KBO1 112321Z 36013KT 10/M11 A3031 RMK A01 T01021107  RH  022%=      5-min Rain = 0
KBO1 112322Z 00013KT 10/M11 A3031 RMK A01 T01021107  RH  022%=      5-min Rain = 0
KBO1 112323Z 01010KT 10/M11 A3031 RMK A01 T01021107  RH  022%=      5-min Rain = 0
KBO1 112324Z 00013KT 10/M11 A3031 RMK A01 T01021108  RH  022%=      5-min Rain = 0
KBO1 112325Z 01011KT 10/M11 A3031 RMK A01 T01021108  RH  022%=      5-min Rain = 0
KBO1 112326Z 01014KT 10/M11 A3031 RMK A01 T01011109  RH  022%=      5-min Rain = 0
KBO1 112327Z 01013KT 10/M11 A3031 RMK A01 T01021108  RH  022%=      5-min Rain = 0
KBO1 112328Z 01013KT 10/M11 A3031 RMK A01 T01031108  RH  022%=      5-min Rain = 0
KBO1 112329Z 01013KT 10/M11 A3031 RMK A01 T01031108  RH  021%=      5-min Rain = 0
KBO1 112330Z 01012KT 10/M11 A3031 RMK A01 T01031108  RH  021%=      5-min Rain = 0
KBO1 112331Z 02010KT 11/M11 A3031 RMK A01 T01051107  RH  021%=      5-min Rain = 0
KBO1 112332Z 02011KT 11/M11 A3031 RMK A01 T01051107  RH  021%=      5-min Rain = 0
KBO1 112333Z 02013KT 11/M11 A3031 RMK A01 T01061107  RH  021%=      5-min Rain = 0
KBO1 112334Z 01009KT 10/M11 A3031 RMK A01 T01031110  RH  021%=      5-min Rain = 0
KBO1 112335Z 01012KT 10/M11 A3031 RMK A01 T01011110  RH  021%=      5-min Rain = 0
KBO1 112336Z 02011KT 10/M11 A3031 RMK A01 T01001110  RH  022%=      5-min Rain = 0
KBO1 112337Z 02010KT 10/M11 A3031 RMK A01 T00981111  RH  022%=      5-min Rain = 0
KBO1 112338Z 00010KT 10/M11 A3031 RMK A01 T00971111  RH  022%=      5-min Rain = 0
KBO1 112339Z 35013KT 10/M11 A3031 RMK A01 T00971110  RH  022%=      5-min Rain = 0
KBO1 112340Z 35011KT 10/M11 A3031 RMK A01 T00961111  RH  022%=      5-min Rain = 0
KBO1 112341Z 00010KT 10/M11 A3031 RMK A01 T00961111  RH  022%=      5-min Rain = 0
KBO1 112342Z 00009KT 10/M11 A3031 RMK A01 T00951111  RH  022%=      5-min Rain = 0
KBO1 112343Z 02007KT 10/M11 A3031 RMK A01 T00961110  RH  022%=      5-min Rain = 0
KBO1 112344Z 01008KT 10/M11 A3031 RMK A01 T00981108  RH  022%=      5-min Rain = 0
KBO1 112345Z 02009KT 10/M11 A3031 RMK A01 T00991110  RH  022%=      5-min Rain = 0
KBO1 112346Z 02008KT 10/M11 A3031 RMK A01 T00981111  RH  022%=      5-min Rain = 0
KBO1 112347Z 02008KT 10/M11 A3031 RMK A01 T00981111  RH  022%=      5-min Rain = 0
KBO1 112348Z 02008KT 10/M11 A3031 RMK A01 T00971110  RH  022%=      5-min Rain = 0
KBO1 112349Z 02009KT 10/M11 A3031 RMK A01 T00981110  RH  022%=      5-min Rain = 0
KBO1 112350Z 01009KT 10/M11 A3031 RMK A01 T00981111  RH  022%=      5-min Rain = 0
KBO1 112351Z 02010KT 10/M11 A3031 RMK A01 T00971111  RH  022%=      5-min Rain = 0
KBO1 112352Z 02009KT 10/M11 A3031 RMK A01 T00971111  RH  022%=      5-min Rain = 0
KBO1 112353Z 01009KT 10/M11 A3031 RMK A01 T00971111  RH  022%=      5-min Rain = 0
KBO1 112354Z 01006KT 10/M11 A3031 RMK A01 T00971112  RH  022%=      5-min Rain = 0
KBO1 112355Z 01009KT 10/M11 A3031 RMK A01 T00961112  RH  022%=      5-min Rain = 0
KBO1 112356Z 02009KT 10/M11 A3031 RMK A01 T00961113  RH  022%=      5-min Rain = 0
KBO1 112357Z 01009KT 10/M11 A3031 RMK A01 T00951113  RH  022%=      5-min Rain = 0
KBO1 112358Z 00009KT 10/M11 A3031 RMK A01 T00951114  RH  022%=      5-min Rain = 0
KBO1 112359Z 00008KT 10/M11 A3031 RMK A01 T00951114  RH  022%=      5-min Rain = 0
KBO1 120000Z 00008KT 09/M12 A3031 RMK A01 T00941115  RH  022%=      5-min Rain = 0
KBO1 120001Z 02009KT 09/M12 A3031 RMK A01 T00931115  RH  022%=      5-min Rain = 0
KBO1 120002Z 02006KT 09/M12 A3031 RMK A01 T00931115  RH  022%=      5-min Rain = 0
KBO1 120003Z 02007KT 09/M12 A3031 RMK A01 T00931115  RH  022%=      5-min Rain = 0
KBO1 120004Z 02007KT 09/M12 A3031 RMK A01 T00931115  RH  022%=      5-min Rain = 0
KBO1 120005Z 01007KT 09/M12 A3031 RMK A01 T00931115  RH  022%=      5-min Rain = 0
KBO1 120006Z 02006KT 09/M11 A3031 RMK A01 T00931114  RH  022%=      5-min Rain = 0
KBO1 120007Z 02005KT 09/M12 A3031 RMK A01 T00921115  RH  022%=      5-min Rain = 0
KBO1 120008Z 03008KT 09/M12 A3031 RMK A01 T00921115  RH  022%=      5-min Rain = 0
KBO1 120009Z 04007KT 09/M12 A3031 RMK A01 T00921115  RH  022%=      5-min Rain = 0
KBO1 120010Z 04008KT 09/M12 A3031 RMK A01 T00921115  RH  022%=      5-min Rain = 0
KBO1 120011Z 03007KT 09/M12 A3031 RMK A01 T00921115  RH  022%=      5-min Rain = 0
KBO1 120012Z 03006KT 09/M12 A3031 RMK A01 T00921115  RH  022%=      5-min Rain = 0
KBO1 120013Z 03005KT 09/M12 A3031 RMK A01 T00921115  RH  022%=      5-min Rain = 0
KBO1 120014Z 03006KT 09/M12 A3032 RMK A01 T00911115  RH  022%=      5-min Rain = 0
KBO1 120015Z 04006KT 09/M12 A3032 RMK A01 T00911116  RH  022%=      5-min Rain = 0
KBO1 120016Z 03007KT 09/M12 A3032 RMK A01 T00911116  RH  022%=      5-min Rain = 0
KBO1 120017Z 03007KT 09/M12 A3032 RMK A01 T00911116  RH  022%=      5-min Rain = 0
KBO1 120018Z 03008KT 09/M12 A3032 RMK A01 T00911116  RH  022%=      5-min Rain = 0
KBO1 120019Z 02006KT 09/M12 A3032 RMK A01 T00911115  RH  022%=      5-min Rain = 0
KBO1 120020Z 02006KT 09/M12 A3032 RMK A01 T00901115  RH  022%=      5-min Rain = 0
KBO1 120021Z 02005KT 09/M11 A3032 RMK A01 T00901114  RH  022%=      5-min Rain = 0
KBO1 120022Z 02006KT 09/M11 A3032 RMK A01 T00901114  RH  022%=      5-min Rain = 0
KBO1 120023Z 03007KT 09/M11 A3032 RMK A01 T00901114  RH  022%=      5-min Rain = 0
KBO1 120024Z 03007KT 09/M11 A3032 RMK A01 T00901114  RH  022%=      5-min Rain = 0
KBO1 120025Z 02008KT 09/M11 A3032 RMK A01 T00901114  RH  022%=      5-min Rain = 0
KBO1 120026Z 02008KT 09/M11 A3032 RMK A01 T00891114  RH  022%=      5-min Rain = 0
KBO1 120027Z 02008KT 09/M11 A3032 RMK A01 T00891114  RH  022%=      5-min Rain = 0
KBO1 120028Z 02008KT 09/M11 A3032 RMK A01 T00901114  RH  022%=      5-min Rain = 0
KBO1 120029Z 02007KT 09/M11 A3032 RMK A01 T00891114  RH  022%=      5-min Rain = 0
KBO1 120030Z 03005KT 09/M11 A3032 RMK A01 T00891114  RH  023%=      5-min Rain = 0
KBO1 120031Z 03006KT 09/M11 A3032 RMK A01 T00881114  RH  023%=      5-min Rain = 0
KBO1 120032Z 03006KT 09/M11 A3032 RMK A01 T00881114  RH  023%=      5-min Rain = 0
KBO1 120033Z 03006KT 09/M11 A3032 RMK A01 T00871114  RH  023%=      5-min Rain = 0
KBO1 120034Z 03006KT 09/M11 A3033 RMK A01 T00871114  RH  023%=      5-min Rain = 0
KBO1 120035Z 04005KT 09/M11 A3033 RMK A01 T00861114  RH  023%=      5-min Rain = 0
KBO1 120036Z 04006KT 09/M11 A3033 RMK A01 T00851114  RH  023%=      5-min Rain = 0
KBO1 120037Z 03005KT 09/M11 A3033 RMK A01 T00851114  RH  023%=      5-min Rain = 0
KBO1 120038Z 04006KT 08/M12 A3033 RMK A01 T00841115  RH  023%=      5-min Rain = 0
KBO1 120039Z 04006KT 08/M12 A3033 RMK A01 T00831115  RH  023%=      5-min Rain = 0
KBO1 120040Z 04006KT 08/M12 A3033 RMK A01 T00831115  RH  023%=      5-min Rain = 0
KBO1 120041Z 04007KT 08/M12 A3033 RMK A01 T00821115  RH  023%=      5-min Rain = 0
KBO1 120042Z 03006KT 08/M11 A3033 RMK A01 T00821114  RH  023%=      5-min Rain = 0
KBO1 120043Z 03006KT 08/M12 A3033 RMK A01 T00821115  RH  024%=      5-min Rain = 0
KBO1 120044Z 04006KT 08/M12 A3033 RMK A01 T00811115  RH  024%=      5-min Rain = 0
KBO1 120045Z 04007KT 08/M12 A3033 RMK A01 T00801115  RH  024%=      5-min Rain = 0
KBO1 120046Z 03006KT 08/M12 A3033 RMK A01 T00801115  RH  024%=      5-min Rain = 0
KBO1 120047Z 03006KT 08/M12 A3033 RMK A01 T00791115  RH  024%=      5-min Rain = 0
KBO1 120048Z 03006KT 08/M11 A3033 RMK A01 T00781114  RH  024%=      5-min Rain = 0
KBO1 120049Z 03006KT 08/M12 A3033 RMK A01 T00771115  RH  024%=      5-min Rain = 0
KBO1 120050Z 03006KT 08/M12 A3033 RMK A01 T00761115  RH  024%=      5-min Rain = 0
KBO1 120051Z 03005KT 08/M12 A3033 RMK A01 T00751115  RH  025%=      5-min Rain = 0
KBO1 120052Z 03006KT 08/M12 A3033 RMK A01 T00751115  RH  025%=      5-min Rain = 0
KBO1 120053Z 03006KT 07/M12 A3033 RMK A01 T00741115  RH  025%=      5-min Rain = 0
KBO1 120054Z 04006KT 07/M12 A3033 RMK A01 T00731115  RH  025%=      5-min Rain = 0
KBO1 120055Z 04006KT 07/M12 A3033 RMK A01 T00721115  RH  025%=      5-min Rain = 0
KBO1 120056Z 04006KT 07/M12 A3033 RMK A01 T00711115  RH  025%=      5-min Rain = 0
KBO1 120057Z 03006KT 07/M12 A3033 RMK A01 T00711115  RH  025%=      5-min Rain = 0
KBO1 120058Z 03006KT 07/M12 A3033 RMK A01 T00701115  RH  025%=      5-min Rain = 0
KBO1 120059Z 03006KT 07/M12 A3033 RMK A01 T00691115  RH  025%=      5-min Rain = 0
KBO1 120100Z 03006KT 07/M12 A3033 RMK A01 T00691116  RH  026%=      5-min Rain = 0
KBO1 120101Z 04006KT 07/M12 A3033 RMK A01 T00681115  RH  026%=      5-min Rain = 0
KBO1 120102Z 04006KT 07/M12 A3033 RMK A01 T00671116  RH  026%=      5-min Rain = 0
KBO1 120103Z 04006KT 07/M12 A3033 RMK A01 T00671116  RH  026%=      5-min Rain = 0
KBO1 120104Z 04006KT 07/M12 A3033 RMK A01 T00671115  RH  026%=      5-min Rain = 0
KBO1 120105Z 04005KT 07/M12 A3033 RMK A01 T00661116  RH  026%=      5-min Rain = 0
KBO1 120106Z 04005KT 07/M12 A3034 RMK A01 T00651115  RH  026%=      5-min Rain = 0
KBO1 120107Z 04005KT 06/M12 A3034 RMK A01 T00641115  RH  026%=      5-min Rain = 0
KBO1 120108Z 04004KT 06/M12 A3034 RMK A01 T00631115  RH  027%=      5-min Rain = 0
KBO1 120109Z 04004KT 06/M12 A3034 RMK A01 T00631115  RH  027%=      5-min Rain = 0
KBO1 120110Z 04004KT 06/M12 A3034 RMK A01 T00621115  RH  027%=      5-min Rain = 0
KBO1 120111Z 04004KT 06/M12 A3034 RMK A01 T00621115  RH  027%=      5-min Rain = 0
KBO1 120112Z 05004KT 06/M12 A3034 RMK A01 T00621115  RH  027%=      5-min Rain = 0
KBO1 120113Z 05004KT 06/M12 A3034 RMK A01 T00621115  RH  027%=      5-min Rain = 0
KBO1 120114Z 05004KT 06/M12 A3034 RMK A01 T00621116  RH  027%=      5-min Rain = 0
KBO1 120115Z 05004KT 06/M12 A3034 RMK A01 T00621116  RH  027%=      5-min Rain = 0
KBO1 120116Z 06005KT 06/M12 A3034 RMK A01 T00631116  RH  027%=      5-min Rain = 0
KBO1 120117Z 06005KT 06/M12 A3034 RMK A01 T00631116  RH  026%=      5-min Rain = 0
KBO1 120118Z 06005KT 06/M12 A3034 RMK A01 T00641116  RH  026%=      5-min Rain = 0
KBO1 120119Z 06005KT 06/M12 A3034 RMK A01 T00641116  RH  026%=      5-min Rain = 0
KBO1 120120Z 06005KT 06/M12 A3034 RMK A01 T00641117  RH  026%=      5-min Rain = 0
KBO1 120121Z 06005KT 06/M12 A3034 RMK A01 T00641117  RH  026%=      5-min Rain = 0
KBO1 120122Z 06006KT 06/M12 A3034 RMK A01 T00641117  RH  026%=      5-min Rain = 0
KBO1 120123Z 05005KT 06/M12 A3034 RMK A01 T00641118  RH  026%=      5-min Rain = 0
KBO1 120124Z 05005KT 06/M12 A3034 RMK A01 T00641118  RH  026%=      5-min Rain = 0
KBO1 120125Z 05004KT 06/M12 A3034 RMK A01 T00641118  RH  026%=      5-min Rain = 0
KBO1 120126Z 05004KT 06/M12 A3034 RMK A01 T00641118  RH  026%=      5-min Rain = 0
KBO1 120127Z 05004KT 06/M12 A3034 RMK A01 T00631118  RH  026%=      5-min Rain = 0
KBO1 120128Z 05004KT 06/M12 A3034 RMK A01 T00631117  RH  026%=      5-min Rain = 0
KBO1 120129Z 06004KT 06/M12 A3034 RMK A01 T00621117  RH  026%=      5-min Rain = 0
KBO1 120130Z 06004KT 06/M12 A3034 RMK A01 T00611117  RH  027%=      5-min Rain = 0
KBO1 120131Z 06004KT 06/M12 A3034 RMK A01 T00611117  RH  027%=      5-min Rain = 0
KBO1 120132Z 06004KT 06/M12 A3034 RMK A01 T00601118  RH  027%=      5-min Rain = 0
KBO1 120133Z 06004KT 06/M12 A3034 RMK A01 T00601118  RH  027%=      5-min Rain = 0
KBO1 120134Z 06005KT 06/M12 A3034 RMK A01 T00601118  RH  027%=      5-min Rain = 0
KBO1 120135Z 06005KT 06/M12 A3034 RMK A01 T00591118  RH  027%=      5-min Rain = 0
KBO1 120136Z 06005KT 06/M12 A3034 RMK A01 T00591118  RH  027%=      5-min Rain = 0
KBO1 120137Z 06005KT 06/M12 A3034 RMK A01 T00591118  RH  027%=      5-min Rain = 0
KBO1 120138Z 06004KT 06/M12 A3034 RMK A01 T00591118  RH  027%=      5-min Rain = 0
KBO1 120139Z 06004KT 06/M12 A3034 RMK A01 T00591118  RH  027%=      5-min Rain = 0
KBO1 120140Z 06004KT 06/M12 A3034 RMK A01 T00581119  RH  027%=      5-min Rain = 0
KBO1 120141Z 06004KT 06/M12 A3034 RMK A01 T00581118  RH  027%=      5-min Rain = 0
KBO1 120142Z 06004KT 06/M12 A3034 RMK A01 T00581118  RH  027%=      5-min Rain = 0
KBO1 120143Z 06005KT 06/M12 A3034 RMK A01 T00571119  RH  027%=      5-min Rain = 0
KBO1 120144Z 06005KT 06/M12 A3034 RMK A01 T00581119  RH  027%=      5-min Rain = 0
KBO1 120145Z 06005KT 06/M12 A3034 RMK A01 T00571119  RH  027%=      5-min Rain = 0
KBO1 120146Z 06005KT 06/M12 A3034 RMK A01 T00571119  RH  027%=      5-min Rain = 0
KBO1 120147Z 06005KT 06/M12 A3034 RMK A01 T00571118  RH  027%=      5-min Rain = 0
KBO1 120148Z 06004KT 06/M12 A3034 RMK A01 T00571119  RH  027%=      5-min Rain = 0
KBO1 120149Z 06005KT 06/M12 A3034 RMK A01 T00571118  RH  027%=      5-min Rain = 0
KBO1 120150Z 06005KT 06/M12 A3034 RMK A01 T00561119  RH  027%=      5-min Rain = 0
KBO1 120151Z 06005KT 06/M12 A3034 RMK A01 T00561119  RH  027%=      5-min Rain = 0
KBO1 120152Z 07005KT 06/M12 A3034 RMK A01 T00551119  RH  027%=      5-min Rain = 0
KBO1 120153Z 07005KT 06/M12 A3035 RMK A01 T00551119  RH  027%=      5-min Rain = 0
KBO1 120154Z 07005KT 06/M12 A3035 RMK A01 T00551119  RH  027%=      5-min Rain = 0
KBO1 120155Z 07005KT 05/M12 A3035 RMK A01 T00541119  RH  027%=      5-min Rain = 0
KBO1 120156Z 07005KT 06/M12 A3035 RMK A01 T00551119  RH  027%=      5-min Rain = 0
KBO1 120157Z 07004KT 06/M12 A3035 RMK A01 T00551119  RH  027%=      5-min Rain = 0
KBO1 120158Z 07004KT 06/M12 A3035 RMK A01 T00551119  RH  027%=      5-min Rain = 0
KBO1 120159Z 07004KT 06/M12 A3035 RMK A01 T00551119  RH  027%=      5-min Rain = 0
KBO1 120200Z 07004KT 06/M12 A3035 RMK A01 T00551119  RH  027%=      5-min Rain = 0
KBO1 120201Z 07004KT 06/M12 A3035 RMK A01 T00551120  RH  027%=      5-min Rain = 0
KBO1 120202Z 07004KT 06/M12 A3035 RMK A01 T00551120  RH  027%=      5-min Rain = 0
KBO1 120203Z 07004KT 06/M12 A3035 RMK A01 T00551120  RH  027%=      5-min Rain = 0
KBO1 120204Z 06004KT 06/M12 A3035 RMK A01 T00551121  RH  027%=      5-min Rain = 0
KBO1 120205Z 06004KT 06/M12 A3035 RMK A01 T00551120  RH  027%=      5-min Rain = 0
KBO1 120206Z 06004KT 06/M12 A3035 RMK A01 T00561120  RH  027%=      5-min Rain = 0
KBO1 120207Z 06004KT 06/M12 A3035 RMK A01 T00561121  RH  027%=      5-min Rain = 0
KBO1 120208Z 06004KT 06/M12 A3035 RMK A01 T00561120  RH  027%=      5-min Rain = 0
KBO1 120209Z 06004KT 06/M12 A3035 RMK A01 T00561120  RH  027%=      5-min Rain = 0
KBO1 120210Z 06004KT 06/M12 A3035 RMK A01 T00571121  RH  027%=      5-min Rain = 0
KBO1 120211Z 06004KT 06/M12 A3035 RMK A01 T00571121  RH  027%=      5-min Rain = 0
KBO1 120212Z 06004KT 06/M12 A3035 RMK A01 T00571121  RH  026%=      5-min Rain = 0
KBO1 120213Z 06004KT 06/M12 A3035 RMK A01 T00571121  RH  026%=      5-min Rain = 0
KBO1 120214Z 06004KT 06/M12 A3035 RMK A01 T00581121  RH  026%=      5-min Rain = 0
KBO1 120215Z 06004KT 06/M12 A3035 RMK A01 T00581122  RH  026%=      5-min Rain = 0
KBO1 120216Z 06004KT 06/M12 A3035 RMK A01 T00581121  RH  026%=      5-min Rain = 0
KBO1 120217Z 06004KT 06/M12 A3035 RMK A01 T00581121  RH  026%=      5-min Rain = 0
KBO1 120218Z 06004KT 06/M12 A3035 RMK A01 T00581121  RH  026%=      5-min Rain = 0
KBO1 120219Z 06004KT 06/M12 A3035 RMK A01 T00581121  RH  026%=      5-min Rain = 0
KBO1 120220Z 06004KT 06/M12 A3035 RMK A01 T00581121  RH  026%=      5-min Rain = 0
KBO1 120221Z 07004KT 06/M12 A3035 RMK A01 T00581120  RH  026%=      5-min Rain = 0
KBO1 120222Z 07004KT 06/M12 A3035 RMK A01 T00581120  RH  026%=      5-min Rain = 0
KBO1 120223Z 07004KT 06/M12 A3035 RMK A01 T00581121  RH  026%=      5-min Rain = 0
KBO1 120224Z 07004KT 06/M12 A3035 RMK A01 T00581121  RH  026%=      5-min Rain = 0
KBO1 120225Z 07003KT 06/M12 A3035 RMK A01 T00571121  RH  026%=      5-min Rain = 0
KBO1 120226Z 07003KT 06/M12 A3035 RMK A01 T00571121  RH  026%=      5-min Rain = 0
KBO1 120227Z 07003KT 06/M12 A3035 RMK A01 T00571122  RH  026%=      5-min Rain = 0
KBO1 120228Z 08004KT 06/M12 A3035 RMK A01 T00571122  RH  026%=      5-min Rain = 0
KBO1 120229Z 08003KT 06/M12 A3035 RMK A01 T00571122  RH  026%=      5-min Rain = 0
KBO1 120230Z 08003KT 06/M12 A3035 RMK A01 T00571122  RH  026%=      5-min Rain = 0
KBO1 120231Z 09004KT 06/M12 A3035 RMK A01 T00571123  RH  026%=      5-min Rain = 0
KBO1 120232Z 09004KT 06/M12 A3035 RMK A01 T00581123  RH  026%=      5-min Rain = 0
KBO1 120233Z 08004KT 06/M12 A3035 RMK A01 T00581123  RH  026%=      5-min Rain = 0
KBO1 120234Z 08003KT 06/M12 A3035 RMK A01 T00581123  RH  026%=      5-min Rain = 0
KBO1 120235Z 08003KT 06/M12 A3035 RMK A01 T00581123  RH  026%=      5-min Rain = 0
KBO1 120236Z 08004KT 06/M12 A3035 RMK A01 T00571124  RH  026%=      5-min Rain = 0
KBO1 120237Z 07004KT 06/M12 A3035 RMK A01 T00571124  RH  026%=      5-min Rain = 0
KBO1 120238Z 07004KT 06/M12 A3035 RMK A01 T00571123  RH  026%=      5-min Rain = 0
KBO1 120239Z 07004KT 06/M12 A3035 RMK A01 T00571124  RH  026%=      5-min Rain = 0
KBO1 120240Z 07004KT 06/M12 A3035 RMK A01 T00571123  RH  026%=      5-min Rain = 0
KBO1 120241Z 07004KT 06/M12 A3035 RMK A01 T00571122  RH  026%=      5-min Rain = 0
KBO1 120242Z 07004KT 06/M12 A3035 RMK A01 T00561122  RH  026%=      5-min Rain = 0
KBO1 120243Z 07005KT 06/M12 A3035 RMK A01 T00551122  RH  027%=      5-min Rain = 0
KBO1 120244Z 07005KT 06/M12 A3035 RMK A01 T00551121  RH  027%=      5-min Rain = 0
KBO1 120245Z 07005KT 05/M12 A3035 RMK A01 T00541121  RH  027%=      5-min Rain = 0
KBO1 120246Z 07005KT 05/M12 A3035 RMK A01 T00541120  RH  027%=      5-min Rain = 0
KBO1 120247Z 07005KT 05/M12 A3035 RMK A01 T00541120  RH  027%=      5-min Rain = 0
KBO1 120248Z 07005KT 05/M12 A3035 RMK A01 T00531120  RH  027%=      5-min Rain = 0
KBO1 120249Z 07005KT 05/M12 A3035 RMK A01 T00531120  RH  028%=      5-min Rain = 0
KBO1 120250Z 07005KT 05/M12 A3035 RMK A01 T00531119  RH  028%=      5-min Rain = 0
KBO1 120251Z 07005KT 05/M12 A3035 RMK A01 T00521119  RH  028%=      5-min Rain = 0
KBO1 120252Z 07005KT 05/M12 A3035 RMK A01 T00531119  RH  028%=      5-min Rain = 0
KBO1 120253Z 07005KT 05/M12 A3035 RMK A01 T00531119  RH  028%=      5-min Rain = 0
KBO1 120254Z 07005KT 05/M12 A3035 RMK A01 T00531118  RH  028%=      5-min Rain = 0
KBO1 120255Z 07005KT 05/M12 A3035 RMK A01 T00531119  RH  028%=      5-min Rain = 0
KBO1 120256Z 08004KT 05/M12 A3035 RMK A01 T00521119  RH  028%=      5-min Rain = 0
KBO1 120257Z 08004KT 05/M12 A3035 RMK A01 T00521119  RH  028%=      5-min Rain = 0
KBO1 120258Z 08004KT 05/M12 A3035 RMK A01 T00521119  RH  028%=      5-min Rain = 0
KBO1 120259Z 08004KT 05/M12 A3035 RMK A01 T00521119  RH  028%=      5-min Rain = 0
KBO1 120300Z 08004KT 05/M12 A3035 RMK A01 T00511119  RH  028%=      5-min Rain = 0
KBO1 120301Z 08004KT 05/M12 A3035 RMK A01 T00511120  RH  028%=      5-min Rain = 0
KBO1 120302Z 08004KT 05/M12 A3035 RMK A01 T00511120  RH  028%=      5-min Rain = 0
KBO1 120303Z 08004KT 05/M12 A3035 RMK A01 T00511120  RH  028%=      5-min Rain = 0
KBO1 120304Z 08004KT 05/M12 A3035 RMK A01 T00511119  RH  028%=      5-min Rain = 0
KBO1 120305Z 08004KT 05/M12 A3035 RMK A01 T00501119  RH  028%=      5-min Rain = 0
KBO1 120306Z 08004KT 05/M12 A3035 RMK A01 T00501120  RH  028%=      5-min Rain = 0
KBO1 120307Z 08005KT 05/M12 A3035 RMK A01 T00501120  RH  028%=      5-min Rain = 0
KBO1 120308Z 08005KT 05/M12 A3035 RMK A01 T00501120  RH  028%=      5-min Rain = 0
KBO1 120309Z 08005KT 05/M12 A3035 RMK A01 T00491120  RH  028%=      5-min Rain = 0
KBO1 120310Z 08005KT 05/M12 A3035 RMK A01 T00491120  RH  028%=      5-min Rain = 0
KBO1 120311Z 08005KT 05/M12 A3035 RMK A01 T00491120  RH  028%=      5-min Rain = 0
KBO1 120312Z 08005KT 05/M12 A3035 RMK A01 T00491120  RH  028%=      5-min Rain = 0
KBO1 120313Z 08005KT 05/M12 A3035 RMK A01 T00491119  RH  028%=      5-min Rain = 0
KBO1 120314Z 08005KT 05/M12 A3036 RMK A01 T00491119  RH  028%=      5-min Rain = 0
KBO1 120315Z 07005KT 05/M12 A3036 RMK A01 T00481119  RH  028%=      5-min Rain = 0
KBO1 120316Z 08005KT 05/M12 A3036 RMK A01 T00481120  RH  028%=      5-min Rain = 0
KBO1 120317Z 07005KT 05/M12 A3036 RMK A01 T00481119  RH  028%=      5-min Rain = 0
KBO1 120318Z 07005KT 05/M12 A3036 RMK A01 T00481120  RH  028%=      5-min Rain = 0
KBO1 120319Z 07005KT 05/M12 A3036 RMK A01 T00481120  RH  028%=      5-min Rain = 0
KBO1 120320Z 07006KT 05/M12 A3036 RMK A01 T00491120  RH  028%=      5-min Rain = 0
KBO1 120321Z 07006KT 05/M12 A3036 RMK A01 T00491120  RH  028%=      5-min Rain = 0
KBO1 120322Z 07005KT 05/M12 A3036 RMK A01 T00491119  RH  028%=      5-min Rain = 0
KBO1 120323Z 07005KT 05/M12 A3036 RMK A01 T00491119  RH  028%=      5-min Rain = 0
KBO1 120324Z 07005KT 05/M12 A3036 RMK A01 T00491119  RH  029%=      5-min Rain = 0
KBO1 120325Z 07005KT 05/M12 A3036 RMK A01 T00491119  RH  029%=      5-min Rain = 0
KBO1 120326Z 07005KT 05/M12 A3036 RMK A01 T00481119  RH  029%=      5-min Rain = 0
KBO1 120327Z 07005KT 05/M12 A3036 RMK A01 T00481119  RH  029%=      5-min Rain = 0
KBO1 120328Z 07005KT 05/M12 A3036 RMK A01 T00481119  RH  029%=      5-min Rain = 0
KBO1 120329Z 07005KT 05/M12 A3036 RMK A01 T00471119  RH  029%=      5-min Rain = 0
KBO1 120330Z 07005KT 05/M12 A3036 RMK A01 T00471119  RH  029%=      5-min Rain = 0
KBO1 120331Z 07005KT 05/M12 A3036 RMK A01 T00471119  RH  029%=      5-min Rain = 0
KBO1 120332Z 07005KT 05/M12 A3036 RMK A01 T00471119  RH  029%=      5-min Rain = 0
KBO1 120333Z 07005KT 05/M12 A3036 RMK A01 T00471119  RH  029%=      5-min Rain = 0
KBO1 120334Z 07005KT 05/M12 A3036 RMK A01 T00471119  RH  029%=      5-min Rain = 0
KBO1 120335Z 07006KT 05/M12 A3036 RMK A01 T00471119  RH  029%=      5-min Rain = 0
KBO1 120336Z 07005KT 05/M12 A3036 RMK A01 T00471119  RH  029%=      5-min Rain = 0
KBO1 120337Z 07006KT 05/M12 A3036 RMK A01 T00471119  RH  029%=      5-min Rain = 0
KBO1 120338Z 07005KT 05/M12 A3036 RMK A01 T00471120  RH  029%=      5-min Rain = 0
KBO1 120339Z 07005KT 05/M12 A3036 RMK A01 T00471119  RH  029%=      5-min Rain = 0
KBO1 120340Z 07006KT 05/M12 A3036 RMK A01 T00471120  RH  029%=      5-min Rain = 0
KBO1 120341Z 07005KT 05/M12 A3036 RMK A01 T00471119  RH  029%=      5-min Rain = 0
KBO1 120342Z 07006KT 05/M12 A3036 RMK A01 T00471119  RH  029%=      5-min Rain = 0
KBO1 120343Z 07006KT 05/M12 A3037 RMK A01 T00471119  RH  029%=      5-min Rain = 0
KBO1 120344Z 07006KT 05/M12 A3037 RMK A01 T00471119  RH  029%=      5-min Rain = 0
KBO1 120345Z 07006KT 05/M12 A3037 RMK A01 T00471119  RH  029%=      5-min Rain = 0
KBO1 120346Z 07006KT 05/M12 A3037 RMK A01 T00471119  RH  029%=      5-min Rain = 0
KBO1 120347Z 07006KT 05/M12 A3037 RMK A01 T00471119  RH  029%=      5-min Rain = 0
KBO1 120348Z 07006KT 05/M12 A3037 RMK A01 T00471119  RH  029%=      5-min Rain = 0
KBO1 120349Z 07006KT 05/M12 A3037 RMK A01 T00471119  RH  029%=      5-min Rain = 0
KBO1 120350Z 07006KT 05/M12 A3037 RMK A01 T00471119  RH  029%=      5-min Rain = 0
KBO1 120351Z 07006KT 05/M12 A3037 RMK A01 T00471119  RH  029%=      5-min Rain = 0
KBO1 120352Z 07006KT 05/M12 A3037 RMK A01 T00471119  RH  029%=      5-min Rain = 0
KBO1 120353Z 07005KT 05/M12 A3037 RMK A01 T00471119  RH  029%=      5-min Rain = 0
KBO1 120354Z 07005KT 05/M12 A3037 RMK A01 T00471118  RH  029%=      5-min Rain = 0
KBO1 120355Z 07005KT 05/M12 A3037 RMK A01 T00471119  RH  029%=      5-min Rain = 0
KBO1 120356Z 07005KT 05/M12 A3037 RMK A01 T00471119  RH  029%=      5-min Rain = 0
KBO1 120357Z 07005KT 05/M12 A3037 RMK A01 T00471118  RH  029%=      5-min Rain = 0
KBO1 120358Z 07005KT 05/M12 A3037 RMK A01 T00471119  RH  029%=      5-min Rain = 0
KBO1 120359Z 07005KT 05/M12 A3037 RMK A01 T00471119  RH  029%=      5-min Rain = 0
KBO1 120400Z 08005KT 05/M12 A3037 RMK A01 T00471119  RH  029%=      5-min Rain = 0
KBO1 120401Z 07005KT 05/M12 A3037 RMK A01 T00471119  RH  029%=      5-min Rain = 0
KBO1 120402Z 07005KT 05/M12 A3037 RMK A01 T00471119  RH  029%=      5-min Rain = 0
KBO1 120403Z 07005KT 05/M12 A3037 RMK A01 T00471119  RH  029%=      5-min Rain = 0
KBO1 120404Z 07005KT 05/M12 A3037 RMK A01 T00481119  RH  029%=      5-min Rain = 0
KBO1 120405Z 07005KT 05/M12 A3037 RMK A01 T00481119  RH  029%=      5-min Rain = 0
KBO1 120406Z 07005KT 05/M12 A3037 RMK A01 T00481120  RH  029%=      5-min Rain = 0
KBO1 120407Z 07005KT 05/M12 A3037 RMK A01 T00481119  RH  029%=      5-min Rain = 0
KBO1 120408Z 07005KT 05/M12 A3037 RMK A01 T00481119  RH  029%=      5-min Rain = 0
KBO1 120409Z 07005KT 05/M12 A3037 RMK A01 T00481120  RH  029%=      5-min Rain = 0
KBO1 120410Z 08005KT 05/M12 A3037 RMK A01 T00481119  RH  029%=      5-min Rain = 0
KBO1 120411Z 08005KT 05/M12 A3037 RMK A01 T00481120  RH  028%=      5-min Rain = 0
KBO1 120412Z 08004KT 05/M12 A3037 RMK A01 T00481120  RH  028%=      5-min Rain = 0
KBO1 120413Z 08004KT 05/M12 A3037 RMK A01 T00481120  RH  028%=      5-min Rain = 0
KBO1 120414Z 08004KT 05/M12 A3037 RMK A01 T00481119  RH  029%=      5-min Rain = 0
KBO1 120415Z 08004KT 05/M12 A3037 RMK A01 T00481120  RH  029%=      5-min Rain = 0
KBO1 120416Z 09004KT 05/M12 A3038 RMK A01 T00471120  RH  029%=      5-min Rain = 0
KBO1 120417Z 08004KT 05/M12 A3038 RMK A01 T00471120  RH  029%=      5-min Rain = 0
KBO1 120418Z 09004KT 05/M12 A3038 RMK A01 T00471121  RH  029%=      5-min Rain = 0
KBO1 120419Z 09004KT 05/M12 A3037 RMK A01 T00471121  RH  029%=      5-min Rain = 0
KBO1 120420Z 09003KT 05/M12 A3037 RMK A01 T00471121  RH  028%=      5-min Rain = 0
KBO1 120421Z 09003KT 05/M12 A3037 RMK A01 T00461121  RH  029%=      5-min Rain = 0
KBO1 120422Z 08003KT 05/M12 A3037 RMK A01 T00471121  RH  028%=      5-min Rain = 0
KBO1 120423Z 09003KT 05/M12 A3037 RMK A01 T00471121  RH  028%=      5-min Rain = 0
KBO1 120424Z 09003KT 05/M12 A3037 RMK A01 T00471122  RH  028%=      5-min Rain = 0
KBO1 120425Z 09003KT 05/M12 A3037 RMK A01 T00471123  RH  028%=      5-min Rain = 0
KBO1 120426Z 10003KT 05/M12 A3037 RMK A01 T00471123  RH  028%=      5-min Rain = 0
KBO1 120427Z 10003KT 05/M12 A3038 RMK A01 T00461123  RH  028%=      5-min Rain = 0
KBO1 120428Z 10003KT 05/M12 A3038 RMK A01 T00471123  RH  028%=      5-min Rain = 0
KBO1 120429Z 10003KT 05/M12 A3038 RMK A01 T00461123  RH  028%=      5-min Rain = 0
KBO1 120430Z 11002KT 05/M12 A3038 RMK A01 T00471122  RH  028%=      5-min Rain = 0
KBO1 120431Z 11002KT 05/M12 A3038 RMK A01 T00461122  RH  028%=      5-min Rain = 0
KBO1 120432Z 11002KT 05/M12 A3038 RMK A01 T00461122  RH  028%=      5-min Rain = 0
KBO1 120433Z 11002KT 05/M12 A3038 RMK A01 T00451122  RH  029%=      5-min Rain = 0
KBO1 120434Z 12002KT 04/M12 A3038 RMK A01 T00441122  RH  029%=      5-min Rain = 0
KBO1 120435Z 12002KT 04/M12 A3038 RMK A01 T00441122  RH  029%=      5-min Rain = 0
KBO1 120436Z 12002KT 04/M12 A3038 RMK A01 T00441121  RH  029%=      5-min Rain = 0
KBO1 120437Z 13003KT 04/M12 A3038 RMK A01 T00441122  RH  029%=      5-min Rain = 0
KBO1 120438Z 14003KT 04/M12 A3038 RMK A01 T00441121  RH  029%=      5-min Rain = 0
KBO1 120439Z 14003KT 04/M12 A3038 RMK A01 T00441122  RH  029%=      5-min Rain = 0
KBO1 120440Z 13003KT 04/M12 A3038 RMK A01 T00441122  RH  029%=      5-min Rain = 0
KBO1 120441Z 12003KT 04/M12 A3038 RMK A01 T00441122  RH  029%=      5-min Rain = 0
KBO1 120442Z 11003KT 04/M12 A3038 RMK A01 T00441123  RH  028%=      5-min Rain = 0
KBO1 120443Z 11003KT 04/M12 A3038 RMK A01 T00441124  RH  028%=      5-min Rain = 0
KBO1 120444Z 10003KT 04/M12 A3038 RMK A01 T00441124  RH  028%=      5-min Rain = 0
KBO1 120445Z 10003KT 04/M13 A3038 RMK A01 T00441125  RH  028%=      5-min Rain = 0
KBO1 120446Z 10004KT 04/M13 A3038 RMK A01 T00441126  RH  028%=      5-min Rain = 0
KBO1 120447Z 10003KT 04/M13 A3038 RMK A01 T00441127  RH  028%=      5-min Rain = 0
KBO1 120448Z 10004KT 05/M13 A3038 RMK A01 T00451127  RH  027%=      5-min Rain = 0
KBO1 120449Z 10004KT 05/M13 A3038 RMK A01 T00451128  RH  027%=      5-min Rain = 0
KBO1 120450Z 10004KT 05/M13 A3038 RMK A01 T00451128  RH  027%=      5-min Rain = 0
KBO1 120451Z 10004KT 05/M13 A3038 RMK A01 T00451128  RH  027%=      5-min Rain = 0
KBO1 120452Z 10004KT 05/M13 A3038 RMK A01 T00451128  RH  027%=      5-min Rain = 0
KBO1 120453Z 10004KT 04/M13 A3038 RMK A01 T00441129  RH  027%=      5-min Rain = 0
KBO1 120454Z 10004KT 04/M13 A3038 RMK A01 T00431129  RH  027%=      5-min Rain = 0
KBO1 120455Z 10005KT 04/M13 A3038 RMK A01 T00421129  RH  028%=      5-min Rain = 0
KBO1 120456Z 10004KT 04/M13 A3038 RMK A01 T00401129  RH  028%=      5-min Rain = 0
KBO1 120457Z 10004KT 04/M13 A3038 RMK A01 T00391129  RH  028%=      5-min Rain = 0
KBO1 120458Z 10005KT 04/M13 A3038 RMK A01 T00381129  RH  028%=      5-min Rain = 0
KBO1 120459Z 09005KT 04/M13 A3038 RMK A01 T00391130  RH  028%=      5-min Rain = 0

Page generated in 0.0761 seconds.